<?xml version="1.0" encoding="UTF-8" standalone="no" ?><gpx xmlns="http://www.topografix.com/GPX/1/1" xmlns:gpxx="http://www.garmin.com/xmlschemas/GpxExtensions/v3" xmlns:wptx1="http://www.garmin.com/xmlschemas/WaypointExtension/v1" xmlns:gpxtpx="http://www.garmin.com/xmlschemas/TrackPointExtension/v1" creator="GuideVTT.com" version="1.1" xmlns:xsi="http://www.w3.org/2001/XMLSchema-instance" xsi:schemaLocation="http://www.topografix.com/GPX/1/1 http://www.topografix.com/GPX/1/1/gpx.xsd http://www.garmin.com/xmlschemas/GpxExtensions/v3 http://www8.garmin.com/xmlschemas/GpxExtensionsv3.xsd http://www.garmin.com/xmlschemas/WaypointExtension/v1 http://www8.garmin.com/xmlschemas/WaypointExtensionv1.xsd http://www.garmin.com/xmlschemas/TrackPointExtension/v1 http://www.garmin.com/xmlschemas/TrackPointExtensionv1.xsd">
<metadata><link href="http://www.garmin.com"><text>Garmin International</text></link><time>2013-06-22T15:13:50Z</time></metadata>
<trk><name>tour_du_montnv1.gpx</name><extensions><gpxx:TrackExtension><gpxx:DisplayColor>Cyan</gpxx:DisplayColor></gpxx:TrackExtension></extensions><trkseg>
<trkpt lat="46.30616667" lon="5.35611667"><ele></ele><time>2014-6-9T19:8:36Z</time></trkpt>
<trkpt lat="46.30603333" lon="5.35621667"><ele></ele><time>2014-6-9T19:8:39Z</time></trkpt>
<trkpt lat="46.30595000" lon="5.35621667"><ele></ele><time>2014-6-9T19:8:42Z</time></trkpt>
<trkpt lat="46.30546667" lon="5.35618333"><ele></ele><time>2014-6-9T19:8:45Z</time></trkpt>
<trkpt lat="46.30526667" lon="5.35616667"><ele></ele><time>2014-6-9T19:8:48Z</time></trkpt>
<trkpt lat="46.30508333" lon="5.35611667"><ele></ele><time>2014-6-9T19:8:51Z</time></trkpt>
<trkpt lat="46.30491667" lon="5.35611667"><ele></ele><time>2014-6-9T19:8:54Z</time></trkpt>
<trkpt lat="46.30483333" lon="5.35633333"><ele></ele><time>2014-6-9T19:8:57Z</time></trkpt>
<trkpt lat="46.30490000" lon="5.35655000"><ele></ele><time>2014-6-9T19:9:0Z</time></trkpt>
<trkpt lat="46.30505000" lon="5.35673333"><ele></ele><time>2014-6-9T19:9:3Z</time></trkpt>
<trkpt lat="46.30515000" lon="5.35686667"><ele></ele><time>2014-6-9T19:9:6Z</time></trkpt>
<trkpt lat="46.30523333" lon="5.35716667"><ele></ele><time>2014-6-9T19:9:9Z</time></trkpt>
<trkpt lat="46.30525000" lon="5.35738333"><ele></ele><time>2014-6-9T19:9:12Z</time></trkpt>
<trkpt lat="46.30526667" lon="5.35761667"><ele></ele><time>2014-6-9T19:9:15Z</time></trkpt>
<trkpt lat="46.30530000" lon="5.35791667"><ele></ele><time>2014-6-9T19:9:18Z</time></trkpt>
<trkpt lat="46.30531667" lon="5.35825000"><ele></ele><time>2014-6-9T19:9:21Z</time></trkpt>
<trkpt lat="46.30533333" lon="5.35848333"><ele></ele><time>2014-6-9T19:9:24Z</time></trkpt>
<trkpt lat="46.30536667" lon="5.35873333"><ele></ele><time>2014-6-9T19:9:27Z</time></trkpt>
<trkpt lat="46.30541667" lon="5.35903333"><ele></ele><time>2014-6-9T19:9:30Z</time></trkpt>
<trkpt lat="46.30543333" lon="5.35930000"><ele></ele><time>2014-6-9T19:9:33Z</time></trkpt>
<trkpt lat="46.30545000" lon="5.35955000"><ele></ele><time>2014-6-9T19:9:36Z</time></trkpt>
<trkpt lat="46.30531667" lon="5.35960000"><ele></ele><time>2014-6-9T19:9:39Z</time></trkpt>
<trkpt lat="46.30513333" lon="5.35965000"><ele></ele><time>2014-6-9T19:9:42Z</time></trkpt>
<trkpt lat="46.30491667" lon="5.35968333"><ele></ele><time>2014-6-9T19:9:45Z</time></trkpt>
<trkpt lat="46.30420000" lon="5.35983333"><ele></ele><time>2014-6-9T19:9:48Z</time></trkpt>
<trkpt lat="46.30398333" lon="5.36000000"><ele></ele><time>2014-6-9T19:9:51Z</time></trkpt>
<trkpt lat="46.30378333" lon="5.36018333"><ele></ele><time>2014-6-9T19:9:54Z</time></trkpt>
<trkpt lat="46.30363333" lon="5.36020000"><ele></ele><time>2014-6-9T19:9:57Z</time></trkpt>
<trkpt lat="46.30346667" lon="5.36020000"><ele></ele><time>2014-6-9T19:10:0Z</time></trkpt>
<trkpt lat="46.30323333" lon="5.36020000"><ele></ele><time>2014-6-9T19:10:3Z</time></trkpt>
<trkpt lat="46.30258333" lon="5.36031667"><ele></ele><time>2014-6-9T19:10:6Z</time></trkpt>
<trkpt lat="46.30258333" lon="5.36056667"><ele></ele><time>2014-6-9T19:10:9Z</time></trkpt>
<trkpt lat="46.30261667" lon="5.36098333"><ele></ele><time>2014-6-9T19:10:12Z</time></trkpt>
<trkpt lat="46.30273333" lon="5.36273333"><ele></ele><time>2014-6-9T19:10:15Z</time></trkpt>
<trkpt lat="46.30280000" lon="5.36351667"><ele></ele><time>2014-6-9T19:10:18Z</time></trkpt>
<trkpt lat="46.30285000" lon="5.36386667"><ele></ele><time>2014-6-9T19:10:21Z</time></trkpt>
<trkpt lat="46.30280000" lon="5.36411667"><ele></ele><time>2014-6-9T19:10:24Z</time></trkpt>
<trkpt lat="46.30271667" lon="5.36436667"><ele></ele><time>2014-6-9T19:10:27Z</time></trkpt>
<trkpt lat="46.30265000" lon="5.36461667"><ele></ele><time>2014-6-9T19:10:30Z</time></trkpt>
<trkpt lat="46.30260000" lon="5.36488333"><ele></ele><time>2014-6-9T19:10:33Z</time></trkpt>
<trkpt lat="46.30251667" lon="5.36531667"><ele></ele><time>2014-6-9T19:10:36Z</time></trkpt>
<trkpt lat="46.30245000" lon="5.36553333"><ele></ele><time>2014-6-9T19:10:39Z</time></trkpt>
<trkpt lat="46.30223333" lon="5.36620000"><ele></ele><time>2014-6-9T19:10:42Z</time></trkpt>
<trkpt lat="46.30218333" lon="5.36641667"><ele></ele><time>2014-6-9T19:10:45Z</time></trkpt>
<trkpt lat="46.30211667" lon="5.36670000"><ele></ele><time>2014-6-9T19:10:48Z</time></trkpt>
<trkpt lat="46.30191667" lon="5.36753333"><ele></ele><time>2014-6-9T19:10:51Z</time></trkpt>
<trkpt lat="46.30185000" lon="5.36773333"><ele></ele><time>2014-6-9T19:10:54Z</time></trkpt>
<trkpt lat="46.30171667" lon="5.36810000"><ele></ele><time>2014-6-9T19:10:57Z</time></trkpt>
<trkpt lat="46.30153333" lon="5.36856667"><ele></ele><time>2014-6-9T19:11:0Z</time></trkpt>
<trkpt lat="46.30135000" lon="5.36903333"><ele></ele><time>2014-6-9T19:11:3Z</time></trkpt>
<trkpt lat="46.30096667" lon="5.37003333"><ele></ele><time>2014-6-9T19:11:6Z</time></trkpt>
<trkpt lat="46.30091667" lon="5.37021667"><ele></ele><time>2014-6-9T19:11:9Z</time></trkpt>
<trkpt lat="46.30085000" lon="5.37041667"><ele></ele><time>2014-6-9T19:11:12Z</time></trkpt>
<trkpt lat="46.30076667" lon="5.37060000"><ele></ele><time>2014-6-9T19:11:15Z</time></trkpt>
<trkpt lat="46.30066667" lon="5.37088333"><ele></ele><time>2014-6-9T19:11:18Z</time></trkpt>
<trkpt lat="46.30053333" lon="5.37120000"><ele></ele><time>2014-6-9T19:11:21Z</time></trkpt>
<trkpt lat="46.30041667" lon="5.37145000"><ele></ele><time>2014-6-9T19:11:24Z</time></trkpt>
<trkpt lat="46.30026667" lon="5.37176667"><ele></ele><time>2014-6-9T19:11:27Z</time></trkpt>
<trkpt lat="46.29990000" lon="5.37255000"><ele></ele><time>2014-6-9T19:11:30Z</time></trkpt>
<trkpt lat="46.29978333" lon="5.37283333"><ele></ele><time>2014-6-9T19:11:33Z</time></trkpt>
<trkpt lat="46.29961667" lon="5.37321667"><ele></ele><time>2014-6-9T19:11:36Z</time></trkpt>
<trkpt lat="46.29950000" lon="5.37343333"><ele></ele><time>2014-6-9T19:11:39Z</time></trkpt>
<trkpt lat="46.29938333" lon="5.37361667"><ele></ele><time>2014-6-9T19:11:42Z</time></trkpt>
<trkpt lat="46.29926667" lon="5.37376667"><ele></ele><time>2014-6-9T19:11:45Z</time></trkpt>
<trkpt lat="46.29916667" lon="5.37391667"><ele></ele><time>2014-6-9T19:11:48Z</time></trkpt>
<trkpt lat="46.29906667" lon="5.37408333"><ele></ele><time>2014-6-9T19:11:51Z</time></trkpt>
<trkpt lat="46.29898333" lon="5.37425000"><ele></ele><time>2014-6-9T19:11:54Z</time></trkpt>
<trkpt lat="46.29896667" lon="5.37445000"><ele></ele><time>2014-6-9T19:11:57Z</time></trkpt>
<trkpt lat="46.29916667" lon="5.37453333"><ele></ele><time>2014-6-9T19:12:0Z</time></trkpt>
<trkpt lat="46.29931667" lon="5.37456667"><ele></ele><time>2014-6-9T19:12:3Z</time></trkpt>
<trkpt lat="46.29981667" lon="5.37468333"><ele></ele><time>2014-6-9T19:12:6Z</time></trkpt>
<trkpt lat="46.30016667" lon="5.37478333"><ele></ele><time>2014-6-9T19:12:9Z</time></trkpt>
<trkpt lat="46.30031667" lon="5.37475000"><ele></ele><time>2014-6-9T19:12:12Z</time></trkpt>
<trkpt lat="46.30048333" lon="5.37468333"><ele></ele><time>2014-6-9T19:12:15Z</time></trkpt>
<trkpt lat="46.30081667" lon="5.37451667"><ele></ele><time>2014-6-9T19:12:18Z</time></trkpt>
<trkpt lat="46.30098333" lon="5.37441667"><ele></ele><time>2014-6-9T19:12:21Z</time></trkpt>
<trkpt lat="46.30161667" lon="5.37408333"><ele></ele><time>2014-6-9T19:12:24Z</time></trkpt>
<trkpt lat="46.30185000" lon="5.37398333"><ele></ele><time>2014-6-9T19:12:27Z</time></trkpt>
<trkpt lat="46.30198333" lon="5.37393333"><ele></ele><time>2014-6-9T19:12:30Z</time></trkpt>
<trkpt lat="46.30220000" lon="5.37388333"><ele></ele><time>2014-6-9T19:12:33Z</time></trkpt>
<trkpt lat="46.30246667" lon="5.37383333"><ele></ele><time>2014-6-9T19:12:36Z</time></trkpt>
<trkpt lat="46.30266667" lon="5.37386667"><ele></ele><time>2014-6-9T19:12:39Z</time></trkpt>
<trkpt lat="46.30303333" lon="5.37393333"><ele></ele><time>2014-6-9T19:12:42Z</time></trkpt>
<trkpt lat="46.30330000" lon="5.37398333"><ele></ele><time>2014-6-9T19:12:45Z</time></trkpt>
<trkpt lat="46.30351667" lon="5.37398333"><ele></ele><time>2014-6-9T19:12:48Z</time></trkpt>
<trkpt lat="46.30385000" lon="5.37398333"><ele></ele><time>2014-6-9T19:12:51Z</time></trkpt>
<trkpt lat="46.30438333" lon="5.37398333"><ele></ele><time>2014-6-9T19:12:54Z</time></trkpt>
<trkpt lat="46.30468333" lon="5.37400000"><ele></ele><time>2014-6-9T19:12:57Z</time></trkpt>
<trkpt lat="46.30505000" lon="5.37403333"><ele></ele><time>2014-6-9T19:13:0Z</time></trkpt>
<trkpt lat="46.30520000" lon="5.37403333"><ele></ele><time>2014-6-9T19:13:3Z</time></trkpt>
<trkpt lat="46.30540000" lon="5.37405000"><ele></ele><time>2014-6-9T19:13:6Z</time></trkpt>
<trkpt lat="46.30555000" lon="5.37410000"><ele></ele><time>2014-6-9T19:13:9Z</time></trkpt>
<trkpt lat="46.30570000" lon="5.37416667"><ele></ele><time>2014-6-9T19:13:12Z</time></trkpt>
<trkpt lat="46.30583333" lon="5.37423333"><ele></ele><time>2014-6-9T19:13:15Z</time></trkpt>
<trkpt lat="46.30595000" lon="5.37435000"><ele></ele><time>2014-6-9T19:13:18Z</time></trkpt>
<trkpt lat="46.30590000" lon="5.37456667"><ele></ele><time>2014-6-9T19:13:21Z</time></trkpt>
<trkpt lat="46.30576667" lon="5.37478333"><ele></ele><time>2014-6-9T19:13:24Z</time></trkpt>
<trkpt lat="46.30565000" lon="5.37501667"><ele></ele><time>2014-6-9T19:13:27Z</time></trkpt>
<trkpt lat="46.30553333" lon="5.37523333"><ele></ele><time>2014-6-9T19:13:30Z</time></trkpt>
<trkpt lat="46.30543333" lon="5.37545000"><ele></ele><time>2014-6-9T19:13:33Z</time></trkpt>
<trkpt lat="46.30535000" lon="5.37568333"><ele></ele><time>2014-6-9T19:13:36Z</time></trkpt>
<trkpt lat="46.30525000" lon="5.37590000"><ele></ele><time>2014-6-9T19:13:39Z</time></trkpt>
<trkpt lat="46.30515000" lon="5.37610000"><ele></ele><time>2014-6-9T19:13:42Z</time></trkpt>
<trkpt lat="46.30503333" lon="5.37628333"><ele></ele><time>2014-6-9T19:13:45Z</time></trkpt>
<trkpt lat="46.30493333" lon="5.37650000"><ele></ele><time>2014-6-9T19:13:48Z</time></trkpt>
<trkpt lat="46.30486667" lon="5.37675000"><ele></ele><time>2014-6-9T19:13:51Z</time></trkpt>
<trkpt lat="46.30481667" lon="5.37703333"><ele></ele><time>2014-6-9T19:13:54Z</time></trkpt>
<trkpt lat="46.30480000" lon="5.37723333"><ele></ele><time>2014-6-9T19:13:57Z</time></trkpt>
<trkpt lat="46.30478333" lon="5.37743333"><ele></ele><time>2014-6-9T19:14:0Z</time></trkpt>
<trkpt lat="46.30485000" lon="5.37766667"><ele></ele><time>2014-6-9T19:14:3Z</time></trkpt>
<trkpt lat="46.30503333" lon="5.37755000"><ele></ele><time>2014-6-9T19:14:6Z</time></trkpt>
<trkpt lat="46.30525000" lon="5.37743333"><ele></ele><time>2014-6-9T19:14:9Z</time></trkpt>
<trkpt lat="46.30545000" lon="5.37745000"><ele></ele><time>2014-6-9T19:14:12Z</time></trkpt>
<trkpt lat="46.30566667" lon="5.37750000"><ele></ele><time>2014-6-9T19:14:15Z</time></trkpt>
<trkpt lat="46.30633333" lon="5.37765000"><ele></ele><time>2014-6-9T19:14:18Z</time></trkpt>
<trkpt lat="46.30656667" lon="5.37780000"><ele></ele><time>2014-6-9T19:14:21Z</time></trkpt>
<trkpt lat="46.30691667" lon="5.37801667"><ele></ele><time>2014-6-9T19:14:24Z</time></trkpt>
<trkpt lat="46.30716667" lon="5.37801667"><ele></ele><time>2014-6-9T19:14:27Z</time></trkpt>
<trkpt lat="46.30778333" lon="5.37798333"><ele></ele><time>2014-6-9T19:14:30Z</time></trkpt>
<trkpt lat="46.30796667" lon="5.37795000"><ele></ele><time>2014-6-9T19:14:33Z</time></trkpt>
<trkpt lat="46.30816667" lon="5.37790000"><ele></ele><time>2014-6-9T19:14:36Z</time></trkpt>
<trkpt lat="46.30835000" lon="5.37773333"><ele></ele><time>2014-6-9T19:14:39Z</time></trkpt>
<trkpt lat="46.30851667" lon="5.37755000"><ele></ele><time>2014-6-9T19:14:42Z</time></trkpt>
<trkpt lat="46.30868333" lon="5.37736667"><ele></ele><time>2014-6-9T19:14:45Z</time></trkpt>
<trkpt lat="46.30883333" lon="5.37726667"><ele></ele><time>2014-6-9T19:14:48Z</time></trkpt>
<trkpt lat="46.30953333" lon="5.37683333"><ele></ele><time>2014-6-9T19:14:51Z</time></trkpt>
<trkpt lat="46.31020000" lon="5.37638333"><ele></ele><time>2014-6-9T19:14:54Z</time></trkpt>
<trkpt lat="46.31031667" lon="5.37626667"><ele></ele><time>2014-6-9T19:14:57Z</time></trkpt>
<trkpt lat="46.31063333" lon="5.37595000"><ele></ele><time>2014-6-9T19:15:0Z</time></trkpt>
<trkpt lat="46.31078333" lon="5.37581667"><ele></ele><time>2014-6-9T19:15:3Z</time></trkpt>
<trkpt lat="46.31091667" lon="5.37570000"><ele></ele><time>2014-6-9T19:15:6Z</time></trkpt>
<trkpt lat="46.31105000" lon="5.37556667"><ele></ele><time>2014-6-9T19:15:9Z</time></trkpt>
<trkpt lat="46.31116667" lon="5.37543333"><ele></ele><time>2014-6-9T19:15:12Z</time></trkpt>
<trkpt lat="46.31158333" lon="5.37493333"><ele></ele><time>2014-6-9T19:15:15Z</time></trkpt>
<trkpt lat="46.31173333" lon="5.37481667"><ele></ele><time>2014-6-9T19:15:18Z</time></trkpt>
<trkpt lat="46.31191667" lon="5.37468333"><ele></ele><time>2014-6-9T19:15:21Z</time></trkpt>
<trkpt lat="46.31205000" lon="5.37443333"><ele></ele><time>2014-6-9T19:15:24Z</time></trkpt>
<trkpt lat="46.31221667" lon="5.37405000"><ele></ele><time>2014-6-9T19:15:27Z</time></trkpt>
<trkpt lat="46.31235000" lon="5.37386667"><ele></ele><time>2014-6-9T19:15:30Z</time></trkpt>
<trkpt lat="46.31248333" lon="5.37375000"><ele></ele><time>2014-6-9T19:15:33Z</time></trkpt>
<trkpt lat="46.31305000" lon="5.37325000"><ele></ele><time>2014-6-9T19:15:36Z</time></trkpt>
<trkpt lat="46.31320000" lon="5.37316667"><ele></ele><time>2014-6-9T19:15:39Z</time></trkpt>
<trkpt lat="46.31335000" lon="5.37310000"><ele></ele><time>2014-6-9T19:15:42Z</time></trkpt>
<trkpt lat="46.31358333" lon="5.37301667"><ele></ele><time>2014-6-9T19:15:45Z</time></trkpt>
<trkpt lat="46.31365000" lon="5.37276667"><ele></ele><time>2014-6-9T19:15:48Z</time></trkpt>
<trkpt lat="46.31365000" lon="5.37248333"><ele></ele><time>2014-6-9T19:15:51Z</time></trkpt>
<trkpt lat="46.31368333" lon="5.37216667"><ele></ele><time>2014-6-9T19:15:54Z</time></trkpt>
<trkpt lat="46.31375000" lon="5.37181667"><ele></ele><time>2014-6-9T19:15:57Z</time></trkpt>
<trkpt lat="46.31383333" lon="5.37148333"><ele></ele><time>2014-6-9T19:16:0Z</time></trkpt>
<trkpt lat="46.31391667" lon="5.37125000"><ele></ele><time>2014-6-9T19:16:3Z</time></trkpt>
<trkpt lat="46.31396667" lon="5.37106667"><ele></ele><time>2014-6-9T19:16:6Z</time></trkpt>
<trkpt lat="46.31406667" lon="5.37090000"><ele></ele><time>2014-6-9T19:16:9Z</time></trkpt>
<trkpt lat="46.31420000" lon="5.37065000"><ele></ele><time>2014-6-9T19:16:12Z</time></trkpt>
<trkpt lat="46.31430000" lon="5.37050000"><ele></ele><time>2014-6-9T19:16:15Z</time></trkpt>
<trkpt lat="46.31446667" lon="5.37048333"><ele></ele><time>2014-6-9T19:16:18Z</time></trkpt>
<trkpt lat="46.31461667" lon="5.37056667"><ele></ele><time>2014-6-9T19:16:21Z</time></trkpt>
<trkpt lat="46.31480000" lon="5.37063333"><ele></ele><time>2014-6-9T19:16:24Z</time></trkpt>
<trkpt lat="46.31498333" lon="5.37068333"><ele></ele><time>2014-6-9T19:16:27Z</time></trkpt>
<trkpt lat="46.31516667" lon="5.37070000"><ele></ele><time>2014-6-9T19:16:30Z</time></trkpt>
<trkpt lat="46.31535000" lon="5.37073333"><ele></ele><time>2014-6-9T19:16:33Z</time></trkpt>
<trkpt lat="46.31551667" lon="5.37088333"><ele></ele><time>2014-6-9T19:16:36Z</time></trkpt>
<trkpt lat="46.31553333" lon="5.37108333"><ele></ele><time>2014-6-9T19:16:39Z</time></trkpt>
<trkpt lat="46.31558333" lon="5.37126667"><ele></ele><time>2014-6-9T19:16:42Z</time></trkpt>
<trkpt lat="46.31571667" lon="5.37148333"><ele></ele><time>2014-6-9T19:16:45Z</time></trkpt>
<trkpt lat="46.31585000" lon="5.37165000"><ele></ele><time>2014-6-9T19:16:48Z</time></trkpt>
<trkpt lat="46.31596667" lon="5.37185000"><ele></ele><time>2014-6-9T19:16:51Z</time></trkpt>
<trkpt lat="46.31608333" lon="5.37208333"><ele></ele><time>2014-6-9T19:16:54Z</time></trkpt>
<trkpt lat="46.31618333" lon="5.37235000"><ele></ele><time>2014-6-9T19:16:57Z</time></trkpt>
<trkpt lat="46.31625000" lon="5.37263333"><ele></ele><time>2014-6-9T19:17:0Z</time></trkpt>
<trkpt lat="46.31631667" lon="5.37286667"><ele></ele><time>2014-6-9T19:17:3Z</time></trkpt>
<trkpt lat="46.31633333" lon="5.37308333"><ele></ele><time>2014-6-9T19:17:6Z</time></trkpt>
<trkpt lat="46.31633333" lon="5.37330000"><ele></ele><time>2014-6-9T19:17:9Z</time></trkpt>
<trkpt lat="46.31635000" lon="5.37358333"><ele></ele><time>2014-6-9T19:17:12Z</time></trkpt>
<trkpt lat="46.31640000" lon="5.37385000"><ele></ele><time>2014-6-9T19:17:15Z</time></trkpt>
<trkpt lat="46.31648333" lon="5.37410000"><ele></ele><time>2014-6-9T19:17:18Z</time></trkpt>
<trkpt lat="46.31661667" lon="5.37431667"><ele></ele><time>2014-6-9T19:17:21Z</time></trkpt>
<trkpt lat="46.31680000" lon="5.37456667"><ele></ele><time>2014-6-9T19:17:24Z</time></trkpt>
<trkpt lat="46.31690000" lon="5.37471667"><ele></ele><time>2014-6-9T19:17:27Z</time></trkpt>
<trkpt lat="46.31720000" lon="5.37520000"><ele></ele><time>2014-6-9T19:17:30Z</time></trkpt>
<trkpt lat="46.31730000" lon="5.37540000"><ele></ele><time>2014-6-9T19:17:33Z</time></trkpt>
<trkpt lat="46.31776667" lon="5.37643333"><ele></ele><time>2014-6-9T19:17:36Z</time></trkpt>
<trkpt lat="46.31783333" lon="5.37670000"><ele></ele><time>2014-6-9T19:17:39Z</time></trkpt>
<trkpt lat="46.31790000" lon="5.37710000"><ele></ele><time>2014-6-9T19:17:42Z</time></trkpt>
<trkpt lat="46.31800000" lon="5.37770000"><ele></ele><time>2014-6-9T19:17:45Z</time></trkpt>
<trkpt lat="46.31806667" lon="5.37801667"><ele></ele><time>2014-6-9T19:17:48Z</time></trkpt>
<trkpt lat="46.31811667" lon="5.37821667"><ele></ele><time>2014-6-9T19:17:51Z</time></trkpt>
<trkpt lat="46.31820000" lon="5.37853333"><ele></ele><time>2014-6-9T19:17:54Z</time></trkpt>
<trkpt lat="46.31825000" lon="5.37875000"><ele></ele><time>2014-6-9T19:17:57Z</time></trkpt>
<trkpt lat="46.31831667" lon="5.37905000"><ele></ele><time>2014-6-9T19:18:0Z</time></trkpt>
<trkpt lat="46.31836667" lon="5.37925000"><ele></ele><time>2014-6-9T19:18:3Z</time></trkpt>
<trkpt lat="46.31843333" lon="5.37943333"><ele></ele><time>2014-6-9T19:18:6Z</time></trkpt>
<trkpt lat="46.31850000" lon="5.37966667"><ele></ele><time>2014-6-9T19:18:9Z</time></trkpt>
<trkpt lat="46.31855000" lon="5.37988333"><ele></ele><time>2014-6-9T19:18:12Z</time></trkpt>
<trkpt lat="46.31871667" lon="5.38061667"><ele></ele><time>2014-6-9T19:18:15Z</time></trkpt>
<trkpt lat="46.31881667" lon="5.38083333"><ele></ele><time>2014-6-9T19:18:18Z</time></trkpt>
<trkpt lat="46.31895000" lon="5.38101667"><ele></ele><time>2014-6-9T19:18:21Z</time></trkpt>
<trkpt lat="46.31908333" lon="5.38120000"><ele></ele><time>2014-6-9T19:18:24Z</time></trkpt>
<trkpt lat="46.31925000" lon="5.38126667"><ele></ele><time>2014-6-9T19:18:27Z</time></trkpt>
<trkpt lat="46.31943333" lon="5.38115000"><ele></ele><time>2014-6-9T19:18:30Z</time></trkpt>
<trkpt lat="46.31965000" lon="5.38110000"><ele></ele><time>2014-6-9T19:18:33Z</time></trkpt>
<trkpt lat="46.31983333" lon="5.38110000"><ele></ele><time>2014-6-9T19:18:36Z</time></trkpt>
<trkpt lat="46.32003333" lon="5.38106667"><ele></ele><time>2014-6-9T19:18:39Z</time></trkpt>
<trkpt lat="46.32051667" lon="5.38100000"><ele></ele><time>2014-6-9T19:18:42Z</time></trkpt>
<trkpt lat="46.32136667" lon="5.38085000"><ele></ele><time>2014-6-9T19:18:45Z</time></trkpt>
<trkpt lat="46.32153333" lon="5.38085000"><ele></ele><time>2014-6-9T19:18:48Z</time></trkpt>
<trkpt lat="46.32161667" lon="5.38106667"><ele></ele><time>2014-6-9T19:18:51Z</time></trkpt>
<trkpt lat="46.32175000" lon="5.38143333"><ele></ele><time>2014-6-9T19:18:54Z</time></trkpt>
<trkpt lat="46.32181667" lon="5.38168333"><ele></ele><time>2014-6-9T19:18:57Z</time></trkpt>
<trkpt lat="46.32185000" lon="5.38188333"><ele></ele><time>2014-6-9T19:19:0Z</time></trkpt>
<trkpt lat="46.32191667" lon="5.38208333"><ele></ele><time>2014-6-9T19:19:3Z</time></trkpt>
<trkpt lat="46.32201667" lon="5.38226667"><ele></ele><time>2014-6-9T19:19:6Z</time></trkpt>
<trkpt lat="46.32213333" lon="5.38250000"><ele></ele><time>2014-6-9T19:19:9Z</time></trkpt>
<trkpt lat="46.32221667" lon="5.38268333"><ele></ele><time>2014-6-9T19:19:12Z</time></trkpt>
<trkpt lat="46.32226667" lon="5.38288333"><ele></ele><time>2014-6-9T19:19:15Z</time></trkpt>
<trkpt lat="46.32231667" lon="5.38308333"><ele></ele><time>2014-6-9T19:19:18Z</time></trkpt>
<trkpt lat="46.32235000" lon="5.38328333"><ele></ele><time>2014-6-9T19:19:21Z</time></trkpt>
<trkpt lat="46.32240000" lon="5.38361667"><ele></ele><time>2014-6-9T19:19:24Z</time></trkpt>
<trkpt lat="46.32241667" lon="5.38383333"><ele></ele><time>2014-6-9T19:19:27Z</time></trkpt>
<trkpt lat="46.32245000" lon="5.38405000"><ele></ele><time>2014-6-9T19:19:30Z</time></trkpt>
<trkpt lat="46.32248333" lon="5.38426667"><ele></ele><time>2014-6-9T19:19:33Z</time></trkpt>
<trkpt lat="46.32236667" lon="5.38450000"><ele></ele><time>2014-6-9T19:19:36Z</time></trkpt>
<trkpt lat="46.32223333" lon="5.38463333"><ele></ele><time>2014-6-9T19:19:39Z</time></trkpt>
<trkpt lat="46.32220000" lon="5.38483333"><ele></ele><time>2014-6-9T19:19:42Z</time></trkpt>
<trkpt lat="46.32218333" lon="5.38503333"><ele></ele><time>2014-6-9T19:19:45Z</time></trkpt>
<trkpt lat="46.32221667" lon="5.38530000"><ele></ele><time>2014-6-9T19:19:48Z</time></trkpt>
<trkpt lat="46.32226667" lon="5.38558333"><ele></ele><time>2014-6-9T19:19:51Z</time></trkpt>
<trkpt lat="46.32231667" lon="5.38593333"><ele></ele><time>2014-6-9T19:19:54Z</time></trkpt>
<trkpt lat="46.32231667" lon="5.38620000"><ele></ele><time>2014-6-9T19:19:57Z</time></trkpt>
<trkpt lat="46.32231667" lon="5.38646667"><ele></ele><time>2014-6-9T19:20:0Z</time></trkpt>
<trkpt lat="46.32228333" lon="5.38671667"><ele></ele><time>2014-6-9T19:20:3Z</time></trkpt>
<trkpt lat="46.32228333" lon="5.38696667"><ele></ele><time>2014-6-9T19:20:6Z</time></trkpt>
<trkpt lat="46.32231667" lon="5.38720000"><ele></ele><time>2014-6-9T19:20:9Z</time></trkpt>
<trkpt lat="46.32238333" lon="5.38741667"><ele></ele><time>2014-6-9T19:20:12Z</time></trkpt>
<trkpt lat="46.32250000" lon="5.38758333"><ele></ele><time>2014-6-9T19:20:15Z</time></trkpt>
<trkpt lat="46.32265000" lon="5.38760000"><ele></ele><time>2014-6-9T19:20:18Z</time></trkpt>
<trkpt lat="46.32281667" lon="5.38755000"><ele></ele><time>2014-6-9T19:20:21Z</time></trkpt>
<trkpt lat="46.32298333" lon="5.38753333"><ele></ele><time>2014-6-9T19:20:24Z</time></trkpt>
<trkpt lat="46.32318333" lon="5.38750000"><ele></ele><time>2014-6-9T19:20:27Z</time></trkpt>
<trkpt lat="46.32335000" lon="5.38748333"><ele></ele><time>2014-6-9T19:20:30Z</time></trkpt>
<trkpt lat="46.32351667" lon="5.38751667"><ele></ele><time>2014-6-9T19:20:33Z</time></trkpt>
<trkpt lat="46.32373333" lon="5.38758333"><ele></ele><time>2014-6-9T19:20:36Z</time></trkpt>
<trkpt lat="46.32396667" lon="5.38758333"><ele></ele><time>2014-6-9T19:20:39Z</time></trkpt>
<trkpt lat="46.32420000" lon="5.38758333"><ele></ele><time>2014-6-9T19:20:42Z</time></trkpt>
<trkpt lat="46.32425000" lon="5.38780000"><ele></ele><time>2014-6-9T19:20:45Z</time></trkpt>
<trkpt lat="46.32425000" lon="5.38803333"><ele></ele><time>2014-6-9T19:20:48Z</time></trkpt>
<trkpt lat="46.32426667" lon="5.38838333"><ele></ele><time>2014-6-9T19:20:51Z</time></trkpt>
<trkpt lat="46.32428333" lon="5.38860000"><ele></ele><time>2014-6-9T19:20:54Z</time></trkpt>
<trkpt lat="46.32431667" lon="5.38886667"><ele></ele><time>2014-6-9T19:20:57Z</time></trkpt>
<trkpt lat="46.32433333" lon="5.38910000"><ele></ele><time>2014-6-9T19:21:0Z</time></trkpt>
<trkpt lat="46.32435000" lon="5.38935000"><ele></ele><time>2014-6-9T19:21:3Z</time></trkpt>
<trkpt lat="46.32435000" lon="5.38961667"><ele></ele><time>2014-6-9T19:21:6Z</time></trkpt>
<trkpt lat="46.32433333" lon="5.38995000"><ele></ele><time>2014-6-9T19:21:9Z</time></trkpt>
<trkpt lat="46.32426667" lon="5.39015000"><ele></ele><time>2014-6-9T19:21:12Z</time></trkpt>
<trkpt lat="46.32413333" lon="5.39030000"><ele></ele><time>2014-6-9T19:21:15Z</time></trkpt>
<trkpt lat="46.32400000" lon="5.39041667"><ele></ele><time>2014-6-9T19:21:18Z</time></trkpt>
<trkpt lat="46.32383333" lon="5.39055000"><ele></ele><time>2014-6-9T19:21:21Z</time></trkpt>
<trkpt lat="46.32368333" lon="5.39068333"><ele></ele><time>2014-6-9T19:21:24Z</time></trkpt>
<trkpt lat="46.32358333" lon="5.39086667"><ele></ele><time>2014-6-9T19:21:27Z</time></trkpt>
<trkpt lat="46.32351667" lon="5.39105000"><ele></ele><time>2014-6-9T19:21:30Z</time></trkpt>
<trkpt lat="46.32345000" lon="5.39123333"><ele></ele><time>2014-6-9T19:21:33Z</time></trkpt>
<trkpt lat="46.32335000" lon="5.39138333"><ele></ele><time>2014-6-9T19:21:36Z</time></trkpt>
<trkpt lat="46.32326667" lon="5.39156667"><ele></ele><time>2014-6-9T19:21:39Z</time></trkpt>
<trkpt lat="46.32318333" lon="5.39173333"><ele></ele><time>2014-6-9T19:21:42Z</time></trkpt>
<trkpt lat="46.32308333" lon="5.39186667"><ele></ele><time>2014-6-9T19:21:45Z</time></trkpt>
<trkpt lat="46.32298333" lon="5.39200000"><ele></ele><time>2014-6-9T19:21:48Z</time></trkpt>
<trkpt lat="46.32290000" lon="5.39216667"><ele></ele><time>2014-6-9T19:21:51Z</time></trkpt>
<trkpt lat="46.32285000" lon="5.39235000"><ele></ele><time>2014-6-9T19:21:54Z</time></trkpt>
<trkpt lat="46.32275000" lon="5.39255000"><ele></ele><time>2014-6-9T19:21:57Z</time></trkpt>
<trkpt lat="46.32265000" lon="5.39268333"><ele></ele><time>2014-6-9T19:22:0Z</time></trkpt>
<trkpt lat="46.32256667" lon="5.39285000"><ele></ele><time>2014-6-9T19:22:3Z</time></trkpt>
<trkpt lat="46.32245000" lon="5.39308333"><ele></ele><time>2014-6-9T19:22:6Z</time></trkpt>
<trkpt lat="46.32238333" lon="5.39330000"><ele></ele><time>2014-6-9T19:22:9Z</time></trkpt>
<trkpt lat="46.32238333" lon="5.39350000"><ele></ele><time>2014-6-9T19:22:12Z</time></trkpt>
<trkpt lat="46.32235000" lon="5.39371667"><ele></ele><time>2014-6-9T19:22:15Z</time></trkpt>
<trkpt lat="46.32231667" lon="5.39395000"><ele></ele><time>2014-6-9T19:22:18Z</time></trkpt>
<trkpt lat="46.32230000" lon="5.39415000"><ele></ele><time>2014-6-9T19:22:21Z</time></trkpt>
<trkpt lat="46.32226667" lon="5.39438333"><ele></ele><time>2014-6-9T19:22:24Z</time></trkpt>
<trkpt lat="46.32228333" lon="5.39458333"><ele></ele><time>2014-6-9T19:22:27Z</time></trkpt>
<trkpt lat="46.32226667" lon="5.39480000"><ele></ele><time>2014-6-9T19:22:30Z</time></trkpt>
<trkpt lat="46.32223333" lon="5.39500000"><ele></ele><time>2014-6-9T19:22:33Z</time></trkpt>
<trkpt lat="46.32223333" lon="5.39520000"><ele></ele><time>2014-6-9T19:22:36Z</time></trkpt>
<trkpt lat="46.32228333" lon="5.39540000"><ele></ele><time>2014-6-9T19:22:39Z</time></trkpt>
<trkpt lat="46.32231667" lon="5.39563333"><ele></ele><time>2014-6-9T19:22:42Z</time></trkpt>
<trkpt lat="46.32236667" lon="5.39585000"><ele></ele><time>2014-6-9T19:22:45Z</time></trkpt>
<trkpt lat="46.32245000" lon="5.39608333"><ele></ele><time>2014-6-9T19:22:48Z</time></trkpt>
<trkpt lat="46.32251667" lon="5.39628333"><ele></ele><time>2014-6-9T19:22:51Z</time></trkpt>
<trkpt lat="46.32255000" lon="5.39653333"><ele></ele><time>2014-6-9T19:22:54Z</time></trkpt>
<trkpt lat="46.32258333" lon="5.39676667"><ele></ele><time>2014-6-9T19:22:57Z</time></trkpt>
<trkpt lat="46.32263333" lon="5.39701667"><ele></ele><time>2014-6-9T19:23:0Z</time></trkpt>
<trkpt lat="46.32270000" lon="5.39721667"><ele></ele><time>2014-6-9T19:23:3Z</time></trkpt>
<trkpt lat="46.32273333" lon="5.39741667"><ele></ele><time>2014-6-9T19:23:6Z</time></trkpt>
<trkpt lat="46.32280000" lon="5.39761667"><ele></ele><time>2014-6-9T19:23:9Z</time></trkpt>
<trkpt lat="46.32290000" lon="5.39775000"><ele></ele><time>2014-6-9T19:23:12Z</time></trkpt>
<trkpt lat="46.32300000" lon="5.39756667"><ele></ele><time>2014-6-9T19:23:15Z</time></trkpt>
<trkpt lat="46.32306667" lon="5.39738333"><ele></ele><time>2014-6-9T19:23:18Z</time></trkpt>
<trkpt lat="46.32311667" lon="5.39718333"><ele></ele><time>2014-6-9T19:23:21Z</time></trkpt>
<trkpt lat="46.32318333" lon="5.39695000"><ele></ele><time>2014-6-9T19:23:24Z</time></trkpt>
<trkpt lat="46.32318333" lon="5.39675000"><ele></ele><time>2014-6-9T19:23:27Z</time></trkpt>
<trkpt lat="46.32311667" lon="5.39656667"><ele></ele><time>2014-6-9T19:23:30Z</time></trkpt>
<trkpt lat="46.32305000" lon="5.39638333"><ele></ele><time>2014-6-9T19:23:33Z</time></trkpt>
<trkpt lat="46.32298333" lon="5.39620000"><ele></ele><time>2014-6-9T19:23:36Z</time></trkpt>
<trkpt lat="46.32293333" lon="5.39598333"><ele></ele><time>2014-6-9T19:23:39Z</time></trkpt>
<trkpt lat="46.32291667" lon="5.39573333"><ele></ele><time>2014-6-9T19:23:42Z</time></trkpt>
<trkpt lat="46.32291667" lon="5.39551667"><ele></ele><time>2014-6-9T19:23:45Z</time></trkpt>
<trkpt lat="46.32296667" lon="5.39533333"><ele></ele><time>2014-6-9T19:23:48Z</time></trkpt>
<trkpt lat="46.32300000" lon="5.39513333"><ele></ele><time>2014-6-9T19:23:51Z</time></trkpt>
<trkpt lat="46.32305000" lon="5.39490000"><ele></ele><time>2014-6-9T19:23:54Z</time></trkpt>
<trkpt lat="46.32310000" lon="5.39468333"><ele></ele><time>2014-6-9T19:23:57Z</time></trkpt>
<trkpt lat="46.32318333" lon="5.39451667"><ele></ele><time>2014-6-9T19:24:0Z</time></trkpt>
<trkpt lat="46.32325000" lon="5.39431667"><ele></ele><time>2014-6-9T19:24:3Z</time></trkpt>
<trkpt lat="46.32336667" lon="5.39415000"><ele></ele><time>2014-6-9T19:24:6Z</time></trkpt>
<trkpt lat="46.32348333" lon="5.39405000"><ele></ele><time>2014-6-9T19:24:9Z</time></trkpt>
<trkpt lat="46.32361667" lon="5.39395000"><ele></ele><time>2014-6-9T19:24:12Z</time></trkpt>
<trkpt lat="46.32375000" lon="5.39388333"><ele></ele><time>2014-6-9T19:24:15Z</time></trkpt>
<trkpt lat="46.32390000" lon="5.39386667"><ele></ele><time>2014-6-9T19:24:18Z</time></trkpt>
<trkpt lat="46.32405000" lon="5.39386667"><ele></ele><time>2014-6-9T19:24:21Z</time></trkpt>
<trkpt lat="46.32421667" lon="5.39388333"><ele></ele><time>2014-6-9T19:24:24Z</time></trkpt>
<trkpt lat="46.32436667" lon="5.39391667"><ele></ele><time>2014-6-9T19:24:27Z</time></trkpt>
<trkpt lat="46.32451667" lon="5.39395000"><ele></ele><time>2014-6-9T19:24:30Z</time></trkpt>
<trkpt lat="46.32465000" lon="5.39401667"><ele></ele><time>2014-6-9T19:24:33Z</time></trkpt>
<trkpt lat="46.32480000" lon="5.39406667"><ele></ele><time>2014-6-9T19:24:36Z</time></trkpt>
<trkpt lat="46.32506667" lon="5.39415000"><ele></ele><time>2014-6-9T19:24:39Z</time></trkpt>
<trkpt lat="46.32521667" lon="5.39418333"><ele></ele><time>2014-6-9T19:24:42Z</time></trkpt>
<trkpt lat="46.32536667" lon="5.39421667"><ele></ele><time>2014-6-9T19:24:45Z</time></trkpt>
<trkpt lat="46.32551667" lon="5.39426667"><ele></ele><time>2014-6-9T19:24:48Z</time></trkpt>
<trkpt lat="46.32566667" lon="5.39430000"><ele></ele><time>2014-6-9T19:24:51Z</time></trkpt>
<trkpt lat="46.32586667" lon="5.39435000"><ele></ele><time>2014-6-9T19:24:54Z</time></trkpt>
<trkpt lat="46.32610000" lon="5.39435000"><ele></ele><time>2014-6-9T19:24:57Z</time></trkpt>
<trkpt lat="46.32625000" lon="5.39433333"><ele></ele><time>2014-6-9T19:25:0Z</time></trkpt>
<trkpt lat="46.32645000" lon="5.39435000"><ele></ele><time>2014-6-9T19:25:3Z</time></trkpt>
<trkpt lat="46.32660000" lon="5.39435000"><ele></ele><time>2014-6-9T19:25:6Z</time></trkpt>
<trkpt lat="46.32681667" lon="5.39435000"><ele></ele><time>2014-6-9T19:25:9Z</time></trkpt>
<trkpt lat="46.32701667" lon="5.39435000"><ele></ele><time>2014-6-9T19:25:12Z</time></trkpt>
<trkpt lat="46.32736667" lon="5.39435000"><ele></ele><time>2014-6-9T19:25:15Z</time></trkpt>
<trkpt lat="46.32763333" lon="5.39435000"><ele></ele><time>2014-6-9T19:25:18Z</time></trkpt>
<trkpt lat="46.32780000" lon="5.39436667"><ele></ele><time>2014-6-9T19:25:21Z</time></trkpt>
<trkpt lat="46.32808333" lon="5.39436667"><ele></ele><time>2014-6-9T19:25:24Z</time></trkpt>
<trkpt lat="46.32828333" lon="5.39436667"><ele></ele><time>2014-6-9T19:25:27Z</time></trkpt>
<trkpt lat="46.32850000" lon="5.39440000"><ele></ele><time>2014-6-9T19:25:30Z</time></trkpt>
<trkpt lat="46.32880000" lon="5.39443333"><ele></ele><time>2014-6-9T19:25:33Z</time></trkpt>
<trkpt lat="46.32895000" lon="5.39445000"><ele></ele><time>2014-6-9T19:25:36Z</time></trkpt>
<trkpt lat="46.32908333" lon="5.39448333"><ele></ele><time>2014-6-9T19:25:39Z</time></trkpt>
<trkpt lat="46.32925000" lon="5.39450000"><ele></ele><time>2014-6-9T19:25:42Z</time></trkpt>
<trkpt lat="46.32941667" lon="5.39448333"><ele></ele><time>2014-6-9T19:25:45Z</time></trkpt>
<trkpt lat="46.32931667" lon="5.39463333"><ele></ele><time>2014-6-9T19:25:48Z</time></trkpt>
<trkpt lat="46.32918333" lon="5.39466667"><ele></ele><time>2014-6-9T19:25:51Z</time></trkpt>
<trkpt lat="46.32905000" lon="5.39471667"><ele></ele><time>2014-6-9T19:25:54Z</time></trkpt>
<trkpt lat="46.32890000" lon="5.39480000"><ele></ele><time>2014-6-9T19:25:57Z</time></trkpt>
<trkpt lat="46.32875000" lon="5.39486667"><ele></ele><time>2014-6-9T19:26:0Z</time></trkpt>
<trkpt lat="46.32860000" lon="5.39493333"><ele></ele><time>2014-6-9T19:26:3Z</time></trkpt>
<trkpt lat="46.32845000" lon="5.39501667"><ele></ele><time>2014-6-9T19:26:6Z</time></trkpt>
<trkpt lat="46.32830000" lon="5.39508333"><ele></ele><time>2014-6-9T19:26:9Z</time></trkpt>
<trkpt lat="46.32816667" lon="5.39516667"><ele></ele><time>2014-6-9T19:26:12Z</time></trkpt>
<trkpt lat="46.32803333" lon="5.39523333"><ele></ele><time>2014-6-9T19:26:15Z</time></trkpt>
<trkpt lat="46.32788333" lon="5.39533333"><ele></ele><time>2014-6-9T19:26:18Z</time></trkpt>
<trkpt lat="46.32771667" lon="5.39540000"><ele></ele><time>2014-6-9T19:26:21Z</time></trkpt>
<trkpt lat="46.32756667" lon="5.39550000"><ele></ele><time>2014-6-9T19:26:24Z</time></trkpt>
<trkpt lat="46.32743333" lon="5.39556667"><ele></ele><time>2014-6-9T19:26:27Z</time></trkpt>
<trkpt lat="46.32730000" lon="5.39563333"><ele></ele><time>2014-6-9T19:26:30Z</time></trkpt>
<trkpt lat="46.32715000" lon="5.39573333"><ele></ele><time>2014-6-9T19:26:33Z</time></trkpt>
<trkpt lat="46.32685000" lon="5.39593333"><ele></ele><time>2014-6-9T19:26:36Z</time></trkpt>
<trkpt lat="46.32671667" lon="5.39600000"><ele></ele><time>2014-6-9T19:26:39Z</time></trkpt>
<trkpt lat="46.32656667" lon="5.39610000"><ele></ele><time>2014-6-9T19:26:42Z</time></trkpt>
<trkpt lat="46.32641667" lon="5.39618333"><ele></ele><time>2014-6-9T19:26:45Z</time></trkpt>
<trkpt lat="46.32630000" lon="5.39628333"><ele></ele><time>2014-6-9T19:26:48Z</time></trkpt>
<trkpt lat="46.32616667" lon="5.39636667"><ele></ele><time>2014-6-9T19:26:51Z</time></trkpt>
<trkpt lat="46.32603333" lon="5.39641667"><ele></ele><time>2014-6-9T19:26:54Z</time></trkpt>
<trkpt lat="46.32616667" lon="5.39648333"><ele></ele><time>2014-6-9T19:26:57Z</time></trkpt>
<trkpt lat="46.32633333" lon="5.39650000"><ele></ele><time>2014-6-9T19:27:0Z</time></trkpt>
<trkpt lat="46.32648333" lon="5.39650000"><ele></ele><time>2014-6-9T19:27:3Z</time></trkpt>
<trkpt lat="46.32665000" lon="5.39650000"><ele></ele><time>2014-6-9T19:27:6Z</time></trkpt>
<trkpt lat="46.32681667" lon="5.39650000"><ele></ele><time>2014-6-9T19:27:9Z</time></trkpt>
<trkpt lat="46.32698333" lon="5.39648333"><ele></ele><time>2014-6-9T19:27:12Z</time></trkpt>
<trkpt lat="46.32716667" lon="5.39650000"><ele></ele><time>2014-6-9T19:27:15Z</time></trkpt>
<trkpt lat="46.32731667" lon="5.39653333"><ele></ele><time>2014-6-9T19:27:18Z</time></trkpt>
<trkpt lat="46.32746667" lon="5.39653333"><ele></ele><time>2014-6-9T19:27:21Z</time></trkpt>
<trkpt lat="46.32761667" lon="5.39655000"><ele></ele><time>2014-6-9T19:27:24Z</time></trkpt>
<trkpt lat="46.32778333" lon="5.39656667"><ele></ele><time>2014-6-9T19:27:27Z</time></trkpt>
<trkpt lat="46.32793333" lon="5.39656667"><ele></ele><time>2014-6-9T19:27:30Z</time></trkpt>
<trkpt lat="46.32815000" lon="5.39660000"><ele></ele><time>2014-6-9T19:27:33Z</time></trkpt>
<trkpt lat="46.32855000" lon="5.39666667"><ele></ele><time>2014-6-9T19:27:36Z</time></trkpt>
<trkpt lat="46.32870000" lon="5.39668333"><ele></ele><time>2014-6-9T19:27:39Z</time></trkpt>
<trkpt lat="46.32883333" lon="5.39671667"><ele></ele><time>2014-6-9T19:27:42Z</time></trkpt>
<trkpt lat="46.32896667" lon="5.39676667"><ele></ele><time>2014-6-9T19:27:45Z</time></trkpt>
<trkpt lat="46.32910000" lon="5.39680000"><ele></ele><time>2014-6-9T19:27:48Z</time></trkpt>
<trkpt lat="46.32923333" lon="5.39685000"><ele></ele><time>2014-6-9T19:27:51Z</time></trkpt>
<trkpt lat="46.32946667" lon="5.39693333"><ele></ele><time>2014-6-9T19:27:54Z</time></trkpt>
<trkpt lat="46.32961667" lon="5.39698333"><ele></ele><time>2014-6-9T19:27:57Z</time></trkpt>
<trkpt lat="46.32976667" lon="5.39705000"><ele></ele><time>2014-6-9T19:28:0Z</time></trkpt>
<trkpt lat="46.33003333" lon="5.39718333"><ele></ele><time>2014-6-9T19:28:3Z</time></trkpt>
<trkpt lat="46.33018333" lon="5.39726667"><ele></ele><time>2014-6-9T19:28:6Z</time></trkpt>
<trkpt lat="46.33040000" lon="5.39743333"><ele></ele><time>2014-6-9T19:28:9Z</time></trkpt>
<trkpt lat="46.33051667" lon="5.39753333"><ele></ele><time>2014-6-9T19:28:12Z</time></trkpt>
<trkpt lat="46.33066667" lon="5.39765000"><ele></ele><time>2014-6-9T19:28:15Z</time></trkpt>
<trkpt lat="46.33078333" lon="5.39776667"><ele></ele><time>2014-6-9T19:28:18Z</time></trkpt>
<trkpt lat="46.33088333" lon="5.39791667"><ele></ele><time>2014-6-9T19:28:21Z</time></trkpt>
<trkpt lat="46.33098333" lon="5.39806667"><ele></ele><time>2014-6-9T19:28:24Z</time></trkpt>
<trkpt lat="46.33108333" lon="5.39821667"><ele></ele><time>2014-6-9T19:28:27Z</time></trkpt>
<trkpt lat="46.33118333" lon="5.39838333"><ele></ele><time>2014-6-9T19:28:30Z</time></trkpt>
<trkpt lat="46.33133333" lon="5.39845000"><ele></ele><time>2014-6-9T19:28:33Z</time></trkpt>
<trkpt lat="46.33146667" lon="5.39848333"><ele></ele><time>2014-6-9T19:28:36Z</time></trkpt>
<trkpt lat="46.33160000" lon="5.39845000"><ele></ele><time>2014-6-9T19:28:39Z</time></trkpt>
<trkpt lat="46.33175000" lon="5.39846667"><ele></ele><time>2014-6-9T19:28:42Z</time></trkpt>
<trkpt lat="46.33195000" lon="5.39851667"><ele></ele><time>2014-6-9T19:28:45Z</time></trkpt>
<trkpt lat="46.33316667" lon="5.39881667"><ele></ele><time>2014-6-9T19:28:48Z</time></trkpt>
<trkpt lat="46.33356667" lon="5.39891667"><ele></ele><time>2014-6-9T19:28:51Z</time></trkpt>
<trkpt lat="46.33370000" lon="5.39898333"><ele></ele><time>2014-6-9T19:28:54Z</time></trkpt>
<trkpt lat="46.33383333" lon="5.39908333"><ele></ele><time>2014-6-9T19:28:57Z</time></trkpt>
<trkpt lat="46.33423333" lon="5.39935000"><ele></ele><time>2014-6-9T19:29:0Z</time></trkpt>
<trkpt lat="46.33493333" lon="5.39978333"><ele></ele><time>2014-6-9T19:29:3Z</time></trkpt>
<trkpt lat="46.33506667" lon="5.39986667"><ele></ele><time>2014-6-9T19:29:6Z</time></trkpt>
<trkpt lat="46.33520000" lon="5.39993333"><ele></ele><time>2014-6-9T19:29:9Z</time></trkpt>
<trkpt lat="46.33573333" lon="5.40020000"><ele></ele><time>2014-6-9T19:29:12Z</time></trkpt>
<trkpt lat="46.33588333" lon="5.40020000"><ele></ele><time>2014-6-9T19:29:15Z</time></trkpt>
<trkpt lat="46.33616667" lon="5.40015000"><ele></ele><time>2014-6-9T19:29:18Z</time></trkpt>
<trkpt lat="46.33695000" lon="5.40003333"><ele></ele><time>2014-6-9T19:29:21Z</time></trkpt>
<trkpt lat="46.33710000" lon="5.40003333"><ele></ele><time>2014-6-9T19:29:24Z</time></trkpt>
<trkpt lat="46.33723333" lon="5.40006667"><ele></ele><time>2014-6-9T19:29:27Z</time></trkpt>
<trkpt lat="46.33756667" lon="5.40016667"><ele></ele><time>2014-6-9T19:29:30Z</time></trkpt>
<trkpt lat="46.33773333" lon="5.40018333"><ele></ele><time>2014-6-9T19:29:33Z</time></trkpt>
<trkpt lat="46.33793333" lon="5.40016667"><ele></ele><time>2014-6-9T19:29:36Z</time></trkpt>
<trkpt lat="46.33813333" lon="5.40010000"><ele></ele><time>2014-6-9T19:29:39Z</time></trkpt>
<trkpt lat="46.33833333" lon="5.40003333"><ele></ele><time>2014-6-9T19:29:42Z</time></trkpt>
<trkpt lat="46.33853333" lon="5.40020000"><ele></ele><time>2014-6-9T19:29:45Z</time></trkpt>
<trkpt lat="46.33873333" lon="5.40040000"><ele></ele><time>2014-6-9T19:29:48Z</time></trkpt>
<trkpt lat="46.33895000" lon="5.40043333"><ele></ele><time>2014-6-9T19:29:51Z</time></trkpt>
<trkpt lat="46.33918333" lon="5.40036667"><ele></ele><time>2014-6-9T19:29:54Z</time></trkpt>
<trkpt lat="46.33940000" lon="5.40028333"><ele></ele><time>2014-6-9T19:29:57Z</time></trkpt>
<trkpt lat="46.33960000" lon="5.40015000"><ele></ele><time>2014-6-9T19:30:0Z</time></trkpt>
<trkpt lat="46.33971667" lon="5.40000000"><ele></ele><time>2014-6-9T19:30:3Z</time></trkpt>
<trkpt lat="46.33978333" lon="5.39971667"><ele></ele><time>2014-6-9T19:30:6Z</time></trkpt>
<trkpt lat="46.33973333" lon="5.39940000"><ele></ele><time>2014-6-9T19:30:9Z</time></trkpt>
<trkpt lat="46.33965000" lon="5.39906667"><ele></ele><time>2014-6-9T19:30:12Z</time></trkpt>
<trkpt lat="46.33958333" lon="5.39880000"><ele></ele><time>2014-6-9T19:30:15Z</time></trkpt>
<trkpt lat="46.33950000" lon="5.39851667"><ele></ele><time>2014-6-9T19:30:18Z</time></trkpt>
<trkpt lat="46.33935000" lon="5.39796667"><ele></ele><time>2014-6-9T19:30:21Z</time></trkpt>
<trkpt lat="46.33925000" lon="5.39763333"><ele></ele><time>2014-6-9T19:30:24Z</time></trkpt>
<trkpt lat="46.33913333" lon="5.39741667"><ele></ele><time>2014-6-9T19:30:27Z</time></trkpt>
<trkpt lat="46.33900000" lon="5.39720000"><ele></ele><time>2014-6-9T19:30:30Z</time></trkpt>
<trkpt lat="46.33880000" lon="5.39685000"><ele></ele><time>2014-6-9T19:30:33Z</time></trkpt>
<trkpt lat="46.33870000" lon="5.39658333"><ele></ele><time>2014-6-9T19:30:36Z</time></trkpt>
<trkpt lat="46.33853333" lon="5.39618333"><ele></ele><time>2014-6-9T19:30:39Z</time></trkpt>
<trkpt lat="46.33840000" lon="5.39593333"><ele></ele><time>2014-6-9T19:30:42Z</time></trkpt>
<trkpt lat="46.33830000" lon="5.39573333"><ele></ele><time>2014-6-9T19:30:45Z</time></trkpt>
<trkpt lat="46.33801667" lon="5.39515000"><ele></ele><time>2014-6-9T19:30:48Z</time></trkpt>
<trkpt lat="46.33793333" lon="5.39498333"><ele></ele><time>2014-6-9T19:30:51Z</time></trkpt>
<trkpt lat="46.33781667" lon="5.39478333"><ele></ele><time>2014-6-9T19:30:54Z</time></trkpt>
<trkpt lat="46.33760000" lon="5.39443333"><ele></ele><time>2014-6-9T19:30:57Z</time></trkpt>
<trkpt lat="46.33750000" lon="5.39421667"><ele></ele><time>2014-6-9T19:31:0Z</time></trkpt>
<trkpt lat="46.33738333" lon="5.39400000"><ele></ele><time>2014-6-9T19:31:3Z</time></trkpt>
<trkpt lat="46.33701667" lon="5.39330000"><ele></ele><time>2014-6-9T19:31:6Z</time></trkpt>
<trkpt lat="46.33691667" lon="5.39310000"><ele></ele><time>2014-6-9T19:31:9Z</time></trkpt>
<trkpt lat="46.33700000" lon="5.39293333"><ele></ele><time>2014-6-9T19:31:12Z</time></trkpt>
<trkpt lat="46.33713333" lon="5.39288333"><ele></ele><time>2014-6-9T19:31:15Z</time></trkpt>
<trkpt lat="46.33730000" lon="5.39281667"><ele></ele><time>2014-6-9T19:31:18Z</time></trkpt>
<trkpt lat="46.33750000" lon="5.39276667"><ele></ele><time>2014-6-9T19:31:21Z</time></trkpt>
<trkpt lat="46.33768333" lon="5.39271667"><ele></ele><time>2014-6-9T19:31:24Z</time></trkpt>
<trkpt lat="46.33796667" lon="5.39265000"><ele></ele><time>2014-6-9T19:31:27Z</time></trkpt>
<trkpt lat="46.33816667" lon="5.39246667"><ele></ele><time>2014-6-9T19:31:30Z</time></trkpt>
<trkpt lat="46.33836667" lon="5.39235000"><ele></ele><time>2014-6-9T19:31:33Z</time></trkpt>
<trkpt lat="46.33850000" lon="5.39230000"><ele></ele><time>2014-6-9T19:31:36Z</time></trkpt>
<trkpt lat="46.33871667" lon="5.39220000"><ele></ele><time>2014-6-9T19:31:39Z</time></trkpt>
<trkpt lat="46.33893333" lon="5.39203333"><ele></ele><time>2014-6-9T19:31:42Z</time></trkpt>
<trkpt lat="46.33918333" lon="5.39196667"><ele></ele><time>2014-6-9T19:31:45Z</time></trkpt>
<trkpt lat="46.33943333" lon="5.39201667"><ele></ele><time>2014-6-9T19:31:48Z</time></trkpt>
<trkpt lat="46.33980000" lon="5.39208333"><ele></ele><time>2014-6-9T19:31:51Z</time></trkpt>
<trkpt lat="46.34005000" lon="5.39205000"><ele></ele><time>2014-6-9T19:31:54Z</time></trkpt>
<trkpt lat="46.34030000" lon="5.39201667"><ele></ele><time>2014-6-9T19:31:57Z</time></trkpt>
<trkpt lat="46.34043333" lon="5.39180000"><ele></ele><time>2014-6-9T19:32:0Z</time></trkpt>
<trkpt lat="46.34041667" lon="5.39148333"><ele></ele><time>2014-6-9T19:32:3Z</time></trkpt>
<trkpt lat="46.34031667" lon="5.39113333"><ele></ele><time>2014-6-9T19:32:6Z</time></trkpt>
<trkpt lat="46.34021667" lon="5.39076667"><ele></ele><time>2014-6-9T19:32:9Z</time></trkpt>
<trkpt lat="46.34018333" lon="5.39056667"><ele></ele><time>2014-6-9T19:32:12Z</time></trkpt>
<trkpt lat="46.34015000" lon="5.39035000"><ele></ele><time>2014-6-9T19:32:15Z</time></trkpt>
<trkpt lat="46.33988333" lon="5.38818333"><ele></ele><time>2014-6-9T19:32:18Z</time></trkpt>
<trkpt lat="46.33996667" lon="5.38786667"><ele></ele><time>2014-6-9T19:32:21Z</time></trkpt>
<trkpt lat="46.34011667" lon="5.38766667"><ele></ele><time>2014-6-9T19:32:24Z</time></trkpt>
<trkpt lat="46.34030000" lon="5.38768333"><ele></ele><time>2014-6-9T19:32:27Z</time></trkpt>
<trkpt lat="46.34050000" lon="5.38781667"><ele></ele><time>2014-6-9T19:32:30Z</time></trkpt>
<trkpt lat="46.34071667" lon="5.38791667"><ele></ele><time>2014-6-9T19:32:33Z</time></trkpt>
<trkpt lat="46.34093333" lon="5.38805000"><ele></ele><time>2014-6-9T19:32:36Z</time></trkpt>
<trkpt lat="46.34193333" lon="5.38866667"><ele></ele><time>2014-6-9T19:32:39Z</time></trkpt>
<trkpt lat="46.34206667" lon="5.38873333"><ele></ele><time>2014-6-9T19:32:42Z</time></trkpt>
<trkpt lat="46.34261667" lon="5.38903333"><ele></ele><time>2014-6-9T19:32:45Z</time></trkpt>
<trkpt lat="46.34275000" lon="5.38911667"><ele></ele><time>2014-6-9T19:32:48Z</time></trkpt>
<trkpt lat="46.34333333" lon="5.38948333"><ele></ele><time>2014-6-9T19:32:51Z</time></trkpt>
<trkpt lat="46.34348333" lon="5.38956667"><ele></ele><time>2014-6-9T19:32:54Z</time></trkpt>
<trkpt lat="46.34363333" lon="5.38963333"><ele></ele><time>2014-6-9T19:32:57Z</time></trkpt>
<trkpt lat="46.34380000" lon="5.38965000"><ele></ele><time>2014-6-9T19:33:0Z</time></trkpt>
<trkpt lat="46.34396667" lon="5.38961667"><ele></ele><time>2014-6-9T19:33:3Z</time></trkpt>
<trkpt lat="46.34413333" lon="5.38953333"><ele></ele><time>2014-6-9T19:33:6Z</time></trkpt>
<trkpt lat="46.34431667" lon="5.38941667"><ele></ele><time>2014-6-9T19:33:9Z</time></trkpt>
<trkpt lat="46.34535000" lon="5.38875000"><ele></ele><time>2014-6-9T19:33:12Z</time></trkpt>
<trkpt lat="46.34551667" lon="5.38870000"><ele></ele><time>2014-6-9T19:33:15Z</time></trkpt>
<trkpt lat="46.34576667" lon="5.38873333"><ele></ele><time>2014-6-9T19:33:18Z</time></trkpt>
<trkpt lat="46.34598333" lon="5.38881667"><ele></ele><time>2014-6-9T19:33:21Z</time></trkpt>
<trkpt lat="46.34620000" lon="5.38901667"><ele></ele><time>2014-6-9T19:33:24Z</time></trkpt>
<trkpt lat="46.34640000" lon="5.38916667"><ele></ele><time>2014-6-9T19:33:27Z</time></trkpt>
<trkpt lat="46.34660000" lon="5.38920000"><ele></ele><time>2014-6-9T19:33:30Z</time></trkpt>
<trkpt lat="46.34675000" lon="5.38901667"><ele></ele><time>2014-6-9T19:33:33Z</time></trkpt>
<trkpt lat="46.34686667" lon="5.38876667"><ele></ele><time>2014-6-9T19:33:36Z</time></trkpt>
<trkpt lat="46.34705000" lon="5.38858333"><ele></ele><time>2014-6-9T19:33:39Z</time></trkpt>
<trkpt lat="46.34723333" lon="5.38851667"><ele></ele><time>2014-6-9T19:33:42Z</time></trkpt>
<trkpt lat="46.34746667" lon="5.38860000"><ele></ele><time>2014-6-9T19:33:45Z</time></trkpt>
<trkpt lat="46.34775000" lon="5.38871667"><ele></ele><time>2014-6-9T19:33:48Z</time></trkpt>
<trkpt lat="46.34798333" lon="5.38885000"><ele></ele><time>2014-6-9T19:33:51Z</time></trkpt>
<trkpt lat="46.34803333" lon="5.38908333"><ele></ele><time>2014-6-9T19:33:54Z</time></trkpt>
<trkpt lat="46.34803333" lon="5.38933333"><ele></ele><time>2014-6-9T19:33:57Z</time></trkpt>
<trkpt lat="46.34796667" lon="5.38958333"><ele></ele><time>2014-6-9T19:34:0Z</time></trkpt>
<trkpt lat="46.34791667" lon="5.38981667"><ele></ele><time>2014-6-9T19:34:3Z</time></trkpt>
<trkpt lat="46.34786667" lon="5.39000000"><ele></ele><time>2014-6-9T19:34:6Z</time></trkpt>
<trkpt lat="46.34785000" lon="5.39028333"><ele></ele><time>2014-6-9T19:34:9Z</time></trkpt>
<trkpt lat="46.34798333" lon="5.39033333"><ele></ele><time>2014-6-9T19:34:12Z</time></trkpt>
<trkpt lat="46.34815000" lon="5.39035000"><ele></ele><time>2014-6-9T19:34:15Z</time></trkpt>
<trkpt lat="46.34836667" lon="5.39031667"><ele></ele><time>2014-6-9T19:34:18Z</time></trkpt>
<trkpt lat="46.34866667" lon="5.39025000"><ele></ele><time>2014-6-9T19:34:21Z</time></trkpt>
<trkpt lat="46.34898333" lon="5.39015000"><ele></ele><time>2014-6-9T19:34:24Z</time></trkpt>
<trkpt lat="46.34968333" lon="5.38988333"><ele></ele><time>2014-6-9T19:34:27Z</time></trkpt>
<trkpt lat="46.34985000" lon="5.38980000"><ele></ele><time>2014-6-9T19:34:30Z</time></trkpt>
<trkpt lat="46.35016667" lon="5.38961667"><ele></ele><time>2014-6-9T19:34:33Z</time></trkpt>
<trkpt lat="46.35045000" lon="5.38951667"><ele></ele><time>2014-6-9T19:34:36Z</time></trkpt>
<trkpt lat="46.35068333" lon="5.38960000"><ele></ele><time>2014-6-9T19:34:39Z</time></trkpt>
<trkpt lat="46.35078333" lon="5.38983333"><ele></ele><time>2014-6-9T19:34:42Z</time></trkpt>
<trkpt lat="46.35096667" lon="5.38986667"><ele></ele><time>2014-6-9T19:34:45Z</time></trkpt>
<trkpt lat="46.35273333" lon="5.39015000"><ele></ele><time>2014-6-9T19:34:48Z</time></trkpt>
<trkpt lat="46.35290000" lon="5.39023333"><ele></ele><time>2014-6-9T19:34:51Z</time></trkpt>
<trkpt lat="46.35303333" lon="5.39031667"><ele></ele><time>2014-6-9T19:34:54Z</time></trkpt>
<trkpt lat="46.35316667" lon="5.39043333"><ele></ele><time>2014-6-9T19:34:57Z</time></trkpt>
<trkpt lat="46.35328333" lon="5.39058333"><ele></ele><time>2014-6-9T19:35:0Z</time></trkpt>
<trkpt lat="46.35341667" lon="5.39073333"><ele></ele><time>2014-6-9T19:35:3Z</time></trkpt>
<trkpt lat="46.35353333" lon="5.39086667"><ele></ele><time>2014-6-9T19:35:6Z</time></trkpt>
<trkpt lat="46.35366667" lon="5.39096667"><ele></ele><time>2014-6-9T19:35:9Z</time></trkpt>
<trkpt lat="46.35401667" lon="5.39125000"><ele></ele><time>2014-6-9T19:35:12Z</time></trkpt>
<trkpt lat="46.35431667" lon="5.39146667"><ele></ele><time>2014-6-9T19:35:15Z</time></trkpt>
<trkpt lat="46.35466667" lon="5.39171667"><ele></ele><time>2014-6-9T19:35:18Z</time></trkpt>
<trkpt lat="46.35485000" lon="5.39180000"><ele></ele><time>2014-6-9T19:35:21Z</time></trkpt>
<trkpt lat="46.35503333" lon="5.39185000"><ele></ele><time>2014-6-9T19:35:24Z</time></trkpt>
<trkpt lat="46.35518333" lon="5.39186667"><ele></ele><time>2014-6-9T19:35:27Z</time></trkpt>
<trkpt lat="46.35550000" lon="5.39190000"><ele></ele><time>2014-6-9T19:35:30Z</time></trkpt>
<trkpt lat="46.35565000" lon="5.39195000"><ele></ele><time>2014-6-9T19:35:33Z</time></trkpt>
<trkpt lat="46.35580000" lon="5.39203333"><ele></ele><time>2014-6-9T19:35:36Z</time></trkpt>
<trkpt lat="46.35593333" lon="5.39213333"><ele></ele><time>2014-6-9T19:35:39Z</time></trkpt>
<trkpt lat="46.35615000" lon="5.39231667"><ele></ele><time>2014-6-9T19:35:42Z</time></trkpt>
<trkpt lat="46.35630000" lon="5.39240000"><ele></ele><time>2014-6-9T19:35:45Z</time></trkpt>
<trkpt lat="46.35680000" lon="5.39268333"><ele></ele><time>2014-6-9T19:35:48Z</time></trkpt>
<trkpt lat="46.35725000" lon="5.39291667"><ele></ele><time>2014-6-9T19:35:51Z</time></trkpt>
<trkpt lat="46.35738333" lon="5.39303333"><ele></ele><time>2014-6-9T19:35:54Z</time></trkpt>
<trkpt lat="46.35750000" lon="5.39318333"><ele></ele><time>2014-6-9T19:35:57Z</time></trkpt>
<trkpt lat="46.35770000" lon="5.39340000"><ele></ele><time>2014-6-9T19:36:0Z</time></trkpt>
<trkpt lat="46.35790000" lon="5.39361667"><ele></ele><time>2014-6-9T19:36:3Z</time></trkpt>
<trkpt lat="46.35805000" lon="5.39371667"><ele></ele><time>2014-6-9T19:36:6Z</time></trkpt>
<trkpt lat="46.35821667" lon="5.39381667"><ele></ele><time>2014-6-9T19:36:9Z</time></trkpt>
<trkpt lat="46.35840000" lon="5.39386667"><ele></ele><time>2014-6-9T19:36:12Z</time></trkpt>
<trkpt lat="46.35870000" lon="5.39395000"><ele></ele><time>2014-6-9T19:36:15Z</time></trkpt>
<trkpt lat="46.35888333" lon="5.39405000"><ele></ele><time>2014-6-9T19:36:18Z</time></trkpt>
<trkpt lat="46.35903333" lon="5.39405000"><ele></ele><time>2014-6-9T19:36:21Z</time></trkpt>
<trkpt lat="46.35908333" lon="5.39386667"><ele></ele><time>2014-6-9T19:36:24Z</time></trkpt>
<trkpt lat="46.35920000" lon="5.39345000"><ele></ele><time>2014-6-9T19:36:27Z</time></trkpt>
<trkpt lat="46.35925000" lon="5.39325000"><ele></ele><time>2014-6-9T19:36:30Z</time></trkpt>
<trkpt lat="46.35931667" lon="5.39296667"><ele></ele><time>2014-6-9T19:36:33Z</time></trkpt>
<trkpt lat="46.35938333" lon="5.39276667"><ele></ele><time>2014-6-9T19:36:36Z</time></trkpt>
<trkpt lat="46.35945000" lon="5.39248333"><ele></ele><time>2014-6-9T19:36:39Z</time></trkpt>
<trkpt lat="46.35950000" lon="5.39230000"><ele></ele><time>2014-6-9T19:36:42Z</time></trkpt>
<trkpt lat="46.35958333" lon="5.39213333"><ele></ele><time>2014-6-9T19:36:45Z</time></trkpt>
<trkpt lat="46.35966667" lon="5.39196667"><ele></ele><time>2014-6-9T19:36:48Z</time></trkpt>
<trkpt lat="46.35983333" lon="5.39165000"><ele></ele><time>2014-6-9T19:36:51Z</time></trkpt>
<trkpt lat="46.35993333" lon="5.39143333"><ele></ele><time>2014-6-9T19:36:54Z</time></trkpt>
<trkpt lat="46.36003333" lon="5.39125000"><ele></ele><time>2014-6-9T19:36:57Z</time></trkpt>
<trkpt lat="46.36016667" lon="5.39118333"><ele></ele><time>2014-6-9T19:37:0Z</time></trkpt>
<trkpt lat="46.36030000" lon="5.39113333"><ele></ele><time>2014-6-9T19:37:3Z</time></trkpt>
<trkpt lat="46.36045000" lon="5.39106667"><ele></ele><time>2014-6-9T19:37:6Z</time></trkpt>
<trkpt lat="46.36058333" lon="5.39100000"><ele></ele><time>2014-6-9T19:37:9Z</time></trkpt>
<trkpt lat="46.36071667" lon="5.39096667"><ele></ele><time>2014-6-9T19:37:12Z</time></trkpt>
<trkpt lat="46.36085000" lon="5.39091667"><ele></ele><time>2014-6-9T19:37:15Z</time></trkpt>
<trkpt lat="46.36100000" lon="5.39085000"><ele></ele><time>2014-6-9T19:37:18Z</time></trkpt>
<trkpt lat="46.36113333" lon="5.39075000"><ele></ele><time>2014-6-9T19:37:21Z</time></trkpt>
<trkpt lat="46.36123333" lon="5.39061667"><ele></ele><time>2014-6-9T19:37:24Z</time></trkpt>
<trkpt lat="46.36135000" lon="5.39043333"><ele></ele><time>2014-6-9T19:37:27Z</time></trkpt>
<trkpt lat="46.36158333" lon="5.39006667"><ele></ele><time>2014-6-9T19:37:30Z</time></trkpt>
<trkpt lat="46.36166667" lon="5.38990000"><ele></ele><time>2014-6-9T19:37:33Z</time></trkpt>
<trkpt lat="46.36176667" lon="5.38970000"><ele></ele><time>2014-6-9T19:37:36Z</time></trkpt>
<trkpt lat="46.36186667" lon="5.38956667"><ele></ele><time>2014-6-9T19:37:39Z</time></trkpt>
<trkpt lat="46.36200000" lon="5.38943333"><ele></ele><time>2014-6-9T19:37:42Z</time></trkpt>
<trkpt lat="46.36211667" lon="5.38931667"><ele></ele><time>2014-6-9T19:37:45Z</time></trkpt>
<trkpt lat="46.36225000" lon="5.38921667"><ele></ele><time>2014-6-9T19:37:48Z</time></trkpt>
<trkpt lat="46.36240000" lon="5.38916667"><ele></ele><time>2014-6-9T19:37:51Z</time></trkpt>
<trkpt lat="46.36253333" lon="5.38913333"><ele></ele><time>2014-6-9T19:37:54Z</time></trkpt>
<trkpt lat="46.36271667" lon="5.38913333"><ele></ele><time>2014-6-9T19:37:57Z</time></trkpt>
<trkpt lat="46.36291667" lon="5.38910000"><ele></ele><time>2014-6-9T19:38:0Z</time></trkpt>
<trkpt lat="46.36308333" lon="5.38906667"><ele></ele><time>2014-6-9T19:38:3Z</time></trkpt>
<trkpt lat="46.36321667" lon="5.38898333"><ele></ele><time>2014-6-9T19:38:6Z</time></trkpt>
<trkpt lat="46.36336667" lon="5.38891667"><ele></ele><time>2014-6-9T19:38:9Z</time></trkpt>
<trkpt lat="46.36356667" lon="5.38885000"><ele></ele><time>2014-6-9T19:38:12Z</time></trkpt>
<trkpt lat="46.36371667" lon="5.38878333"><ele></ele><time>2014-6-9T19:38:15Z</time></trkpt>
<trkpt lat="46.36383333" lon="5.38868333"><ele></ele><time>2014-6-9T19:38:18Z</time></trkpt>
<trkpt lat="46.36395000" lon="5.38855000"><ele></ele><time>2014-6-9T19:38:21Z</time></trkpt>
<trkpt lat="46.36418333" lon="5.38828333"><ele></ele><time>2014-6-9T19:38:24Z</time></trkpt>
<trkpt lat="46.36431667" lon="5.38820000"><ele></ele><time>2014-6-9T19:38:27Z</time></trkpt>
<trkpt lat="46.36445000" lon="5.38815000"><ele></ele><time>2014-6-9T19:38:30Z</time></trkpt>
<trkpt lat="46.36461667" lon="5.38815000"><ele></ele><time>2014-6-9T19:38:33Z</time></trkpt>
<trkpt lat="46.36483333" lon="5.38816667"><ele></ele><time>2014-6-9T19:38:36Z</time></trkpt>
<trkpt lat="46.36498333" lon="5.38816667"><ele></ele><time>2014-6-9T19:38:39Z</time></trkpt>
<trkpt lat="46.36520000" lon="5.38815000"><ele></ele><time>2014-6-9T19:38:42Z</time></trkpt>
<trkpt lat="46.36551667" lon="5.38810000"><ele></ele><time>2014-6-9T19:38:45Z</time></trkpt>
<trkpt lat="46.36570000" lon="5.38803333"><ele></ele><time>2014-6-9T19:38:48Z</time></trkpt>
<trkpt lat="46.36583333" lon="5.38791667"><ele></ele><time>2014-6-9T19:38:51Z</time></trkpt>
<trkpt lat="46.36595000" lon="5.38780000"><ele></ele><time>2014-6-9T19:38:54Z</time></trkpt>
<trkpt lat="46.36606667" lon="5.38765000"><ele></ele><time>2014-6-9T19:38:57Z</time></trkpt>
<trkpt lat="46.36616667" lon="5.38748333"><ele></ele><time>2014-6-9T19:39:0Z</time></trkpt>
<trkpt lat="46.36630000" lon="5.38728333"><ele></ele><time>2014-6-9T19:39:3Z</time></trkpt>
<trkpt lat="46.36643333" lon="5.38718333"><ele></ele><time>2014-6-9T19:39:6Z</time></trkpt>
<trkpt lat="46.36656667" lon="5.38713333"><ele></ele><time>2014-6-9T19:39:9Z</time></trkpt>
<trkpt lat="46.36665000" lon="5.38696667"><ele></ele><time>2014-6-9T19:39:12Z</time></trkpt>
<trkpt lat="46.36668333" lon="5.38676667"><ele></ele><time>2014-6-9T19:39:15Z</time></trkpt>
<trkpt lat="46.36675000" lon="5.38658333"><ele></ele><time>2014-6-9T19:39:18Z</time></trkpt>
<trkpt lat="46.36686667" lon="5.38646667"><ele></ele><time>2014-6-9T19:39:21Z</time></trkpt>
<trkpt lat="46.36700000" lon="5.38641667"><ele></ele><time>2014-6-9T19:39:24Z</time></trkpt>
<trkpt lat="46.36718333" lon="5.38636667"><ele></ele><time>2014-6-9T19:39:27Z</time></trkpt>
<trkpt lat="46.36733333" lon="5.38628333"><ele></ele><time>2014-6-9T19:39:30Z</time></trkpt>
<trkpt lat="46.36745000" lon="5.38618333"><ele></ele><time>2014-6-9T19:39:33Z</time></trkpt>
<trkpt lat="46.36768333" lon="5.38596667"><ele></ele><time>2014-6-9T19:39:36Z</time></trkpt>
<trkpt lat="46.36786667" lon="5.38573333"><ele></ele><time>2014-6-9T19:39:39Z</time></trkpt>
<trkpt lat="46.36796667" lon="5.38558333"><ele></ele><time>2014-6-9T19:39:42Z</time></trkpt>
<trkpt lat="46.36806667" lon="5.38541667"><ele></ele><time>2014-6-9T19:39:45Z</time></trkpt>
<trkpt lat="46.36818333" lon="5.38523333"><ele></ele><time>2014-6-9T19:39:48Z</time></trkpt>
<trkpt lat="46.36826667" lon="5.38506667"><ele></ele><time>2014-6-9T19:39:51Z</time></trkpt>
<trkpt lat="46.36838333" lon="5.38490000"><ele></ele><time>2014-6-9T19:39:54Z</time></trkpt>
<trkpt lat="46.36851667" lon="5.38471667"><ele></ele><time>2014-6-9T19:39:57Z</time></trkpt>
<trkpt lat="46.36863333" lon="5.38450000"><ele></ele><time>2014-6-9T19:40:0Z</time></trkpt>
<trkpt lat="46.36916667" lon="5.38345000"><ele></ele><time>2014-6-9T19:40:3Z</time></trkpt>
<trkpt lat="46.36926667" lon="5.38313333"><ele></ele><time>2014-6-9T19:40:6Z</time></trkpt>
<trkpt lat="46.37046667" lon="5.37928333"><ele></ele><time>2014-6-9T19:40:9Z</time></trkpt>
<trkpt lat="46.37065000" lon="5.37878333"><ele></ele><time>2014-6-9T19:40:12Z</time></trkpt>
<trkpt lat="46.37073333" lon="5.37851667"><ele></ele><time>2014-6-9T19:40:15Z</time></trkpt>
<trkpt lat="46.37068333" lon="5.37831667"><ele></ele><time>2014-6-9T19:40:18Z</time></trkpt>
<trkpt lat="46.37051667" lon="5.37820000"><ele></ele><time>2014-6-9T19:40:21Z</time></trkpt>
<trkpt lat="46.37040000" lon="5.37800000"><ele></ele><time>2014-6-9T19:40:24Z</time></trkpt>
<trkpt lat="46.37041667" lon="5.37771667"><ele></ele><time>2014-6-9T19:40:27Z</time></trkpt>
<trkpt lat="46.37048333" lon="5.37743333"><ele></ele><time>2014-6-9T19:40:30Z</time></trkpt>
<trkpt lat="46.37055000" lon="5.37716667"><ele></ele><time>2014-6-9T19:40:33Z</time></trkpt>
<trkpt lat="46.37066667" lon="5.37693333"><ele></ele><time>2014-6-9T19:40:36Z</time></trkpt>
<trkpt lat="46.37080000" lon="5.37675000"><ele></ele><time>2014-6-9T19:40:39Z</time></trkpt>
<trkpt lat="46.37093333" lon="5.37661667"><ele></ele><time>2014-6-9T19:40:42Z</time></trkpt>
<trkpt lat="46.37113333" lon="5.37640000"><ele></ele><time>2014-6-9T19:40:45Z</time></trkpt>
<trkpt lat="46.37131667" lon="5.37621667"><ele></ele><time>2014-6-9T19:40:48Z</time></trkpt>
<trkpt lat="46.37153333" lon="5.37606667"><ele></ele><time>2014-6-9T19:40:51Z</time></trkpt>
<trkpt lat="46.37170000" lon="5.37591667"><ele></ele><time>2014-6-9T19:40:54Z</time></trkpt>
<trkpt lat="46.37176667" lon="5.37566667"><ele></ele><time>2014-6-9T19:40:57Z</time></trkpt>
<trkpt lat="46.37180000" lon="5.37541667"><ele></ele><time>2014-6-9T19:41:0Z</time></trkpt>
<trkpt lat="46.37190000" lon="5.37486667"><ele></ele><time>2014-6-9T19:41:3Z</time></trkpt>
<trkpt lat="46.37195000" lon="5.37463333"><ele></ele><time>2014-6-9T19:41:6Z</time></trkpt>
<trkpt lat="46.37203333" lon="5.37418333"><ele></ele><time>2014-6-9T19:41:9Z</time></trkpt>
<trkpt lat="46.37218333" lon="5.37411667"><ele></ele><time>2014-6-9T19:41:12Z</time></trkpt>
<trkpt lat="46.37285000" lon="5.37385000"><ele></ele><time>2014-6-9T19:41:15Z</time></trkpt>
<trkpt lat="46.37308333" lon="5.37386667"><ele></ele><time>2014-6-9T19:41:18Z</time></trkpt>
<trkpt lat="46.37326667" lon="5.37391667"><ele></ele><time>2014-6-9T19:41:21Z</time></trkpt>
<trkpt lat="46.37343333" lon="5.37395000"><ele></ele><time>2014-6-9T19:41:24Z</time></trkpt>
<trkpt lat="46.37365000" lon="5.37400000"><ele></ele><time>2014-6-9T19:41:27Z</time></trkpt>
<trkpt lat="46.37380000" lon="5.37406667"><ele></ele><time>2014-6-9T19:41:30Z</time></trkpt>
<trkpt lat="46.37401667" lon="5.37416667"><ele></ele><time>2014-6-9T19:41:33Z</time></trkpt>
<trkpt lat="46.37431667" lon="5.37425000"><ele></ele><time>2014-6-9T19:41:36Z</time></trkpt>
<trkpt lat="46.37453333" lon="5.37431667"><ele></ele><time>2014-6-9T19:41:39Z</time></trkpt>
<trkpt lat="46.37466667" lon="5.37440000"><ele></ele><time>2014-6-9T19:41:42Z</time></trkpt>
<trkpt lat="46.37483333" lon="5.37435000"><ele></ele><time>2014-6-9T19:41:45Z</time></trkpt>
<trkpt lat="46.37495000" lon="5.37421667"><ele></ele><time>2014-6-9T19:41:48Z</time></trkpt>
<trkpt lat="46.37503333" lon="5.37396667"><ele></ele><time>2014-6-9T19:41:51Z</time></trkpt>
<trkpt lat="46.37501667" lon="5.37370000"><ele></ele><time>2014-6-9T19:41:54Z</time></trkpt>
<trkpt lat="46.37490000" lon="5.37350000"><ele></ele><time>2014-6-9T19:41:57Z</time></trkpt>
<trkpt lat="46.37480000" lon="5.37328333"><ele></ele><time>2014-6-9T19:42:0Z</time></trkpt>
<trkpt lat="46.37471667" lon="5.37305000"><ele></ele><time>2014-6-9T19:42:3Z</time></trkpt>
<trkpt lat="46.37465000" lon="5.37285000"><ele></ele><time>2014-6-9T19:42:6Z</time></trkpt>
<trkpt lat="46.37456667" lon="5.37266667"><ele></ele><time>2014-6-9T19:42:9Z</time></trkpt>
<trkpt lat="46.37440000" lon="5.37226667"><ele></ele><time>2014-6-9T19:42:12Z</time></trkpt>
<trkpt lat="46.37430000" lon="5.37205000"><ele></ele><time>2014-6-9T19:42:15Z</time></trkpt>
<trkpt lat="46.37420000" lon="5.37186667"><ele></ele><time>2014-6-9T19:42:18Z</time></trkpt>
<trkpt lat="46.37405000" lon="5.37175000"><ele></ele><time>2014-6-9T19:42:21Z</time></trkpt>
<trkpt lat="46.37356667" lon="5.37131667"><ele></ele><time>2014-6-9T19:42:24Z</time></trkpt>
<trkpt lat="46.37311667" lon="5.37091667"><ele></ele><time>2014-6-9T19:42:27Z</time></trkpt>
<trkpt lat="46.37295000" lon="5.37083333"><ele></ele><time>2014-6-9T19:42:30Z</time></trkpt>
<trkpt lat="46.37275000" lon="5.37075000"><ele></ele><time>2014-6-9T19:42:33Z</time></trkpt>
<trkpt lat="46.37231667" lon="5.37053333"><ele></ele><time>2014-6-9T19:42:36Z</time></trkpt>
<trkpt lat="46.37208333" lon="5.37040000"><ele></ele><time>2014-6-9T19:42:39Z</time></trkpt>
<trkpt lat="46.37188333" lon="5.37020000"><ele></ele><time>2014-6-9T19:42:42Z</time></trkpt>
<trkpt lat="46.37143333" lon="5.36968333"><ele></ele><time>2014-6-9T19:42:45Z</time></trkpt>
<trkpt lat="46.37111667" lon="5.36921667"><ele></ele><time>2014-6-9T19:42:48Z</time></trkpt>
<trkpt lat="46.37101667" lon="5.36893333"><ele></ele><time>2014-6-9T19:42:51Z</time></trkpt>
<trkpt lat="46.37090000" lon="5.36853333"><ele></ele><time>2014-6-9T19:42:54Z</time></trkpt>
<trkpt lat="46.37086667" lon="5.36820000"><ele></ele><time>2014-6-9T19:42:57Z</time></trkpt>
<trkpt lat="46.37088333" lon="5.36788333"><ele></ele><time>2014-6-9T19:43:0Z</time></trkpt>
<trkpt lat="46.37096667" lon="5.36760000"><ele></ele><time>2014-6-9T19:43:3Z</time></trkpt>
<trkpt lat="46.37105000" lon="5.36731667"><ele></ele><time>2014-6-9T19:43:6Z</time></trkpt>
<trkpt lat="46.37121667" lon="5.36690000"><ele></ele><time>2014-6-9T19:43:9Z</time></trkpt>
<trkpt lat="46.37136667" lon="5.36661667"><ele></ele><time>2014-6-9T19:43:12Z</time></trkpt>
<trkpt lat="46.37165000" lon="5.36606667"><ele></ele><time>2014-6-9T19:43:15Z</time></trkpt>
<trkpt lat="46.37171667" lon="5.36585000"><ele></ele><time>2014-6-9T19:43:18Z</time></trkpt>
<trkpt lat="46.37185000" lon="5.36565000"><ele></ele><time>2014-6-9T19:43:21Z</time></trkpt>
<trkpt lat="46.37201667" lon="5.36546667"><ele></ele><time>2014-6-9T19:43:24Z</time></trkpt>
<trkpt lat="46.37220000" lon="5.36530000"><ele></ele><time>2014-6-9T19:43:27Z</time></trkpt>
<trkpt lat="46.37235000" lon="5.36523333"><ele></ele><time>2014-6-9T19:43:30Z</time></trkpt>
<trkpt lat="46.37248333" lon="5.36510000"><ele></ele><time>2014-6-9T19:43:33Z</time></trkpt>
<trkpt lat="46.37261667" lon="5.36513333"><ele></ele><time>2014-6-9T19:43:36Z</time></trkpt>
<trkpt lat="46.37278333" lon="5.36511667"><ele></ele><time>2014-6-9T19:43:39Z</time></trkpt>
<trkpt lat="46.37291667" lon="5.36518333"><ele></ele><time>2014-6-9T19:43:42Z</time></trkpt>
<trkpt lat="46.37306667" lon="5.36513333"><ele></ele><time>2014-6-9T19:43:45Z</time></trkpt>
<trkpt lat="46.37305000" lon="5.36491667"><ele></ele><time>2014-6-9T19:43:48Z</time></trkpt>
<trkpt lat="46.37296667" lon="5.36473333"><ele></ele><time>2014-6-9T19:43:51Z</time></trkpt>
<trkpt lat="46.37288333" lon="5.36450000"><ele></ele><time>2014-6-9T19:43:54Z</time></trkpt>
<trkpt lat="46.37285000" lon="5.36428333"><ele></ele><time>2014-6-9T19:43:57Z</time></trkpt>
<trkpt lat="46.37280000" lon="5.36410000"><ele></ele><time>2014-6-9T19:44:0Z</time></trkpt>
<trkpt lat="46.37271667" lon="5.36386667"><ele></ele><time>2014-6-9T19:44:3Z</time></trkpt>
<trkpt lat="46.37261667" lon="5.36370000"><ele></ele><time>2014-6-9T19:44:6Z</time></trkpt>
<trkpt lat="46.37251667" lon="5.36356667"><ele></ele><time>2014-6-9T19:44:9Z</time></trkpt>
<trkpt lat="46.37241667" lon="5.36333333"><ele></ele><time>2014-6-9T19:44:12Z</time></trkpt>
<trkpt lat="46.37233333" lon="5.36313333"><ele></ele><time>2014-6-9T19:44:15Z</time></trkpt>
<trkpt lat="46.37220000" lon="5.36278333"><ele></ele><time>2014-6-9T19:44:18Z</time></trkpt>
<trkpt lat="46.37216667" lon="5.36256667"><ele></ele><time>2014-6-9T19:44:21Z</time></trkpt>
<trkpt lat="46.37210000" lon="5.36236667"><ele></ele><time>2014-6-9T19:44:24Z</time></trkpt>
<trkpt lat="46.37203333" lon="5.36216667"><ele></ele><time>2014-6-9T19:44:27Z</time></trkpt>
<trkpt lat="46.37190000" lon="5.36196667"><ele></ele><time>2014-6-9T19:44:30Z</time></trkpt>
<trkpt lat="46.37175000" lon="5.36180000"><ele></ele><time>2014-6-9T19:44:33Z</time></trkpt>
<trkpt lat="46.37158333" lon="5.36161667"><ele></ele><time>2014-6-9T19:44:36Z</time></trkpt>
<trkpt lat="46.37153333" lon="5.36136667"><ele></ele><time>2014-6-9T19:44:39Z</time></trkpt>
<trkpt lat="46.37150000" lon="5.36103333"><ele></ele><time>2014-6-9T19:44:42Z</time></trkpt>
<trkpt lat="46.37145000" lon="5.36073333"><ele></ele><time>2014-6-9T19:44:45Z</time></trkpt>
<trkpt lat="46.37141667" lon="5.36040000"><ele></ele><time>2014-6-9T19:44:48Z</time></trkpt>
<trkpt lat="46.37146667" lon="5.36008333"><ele></ele><time>2014-6-9T19:44:51Z</time></trkpt>
<trkpt lat="46.37165000" lon="5.35980000"><ele></ele><time>2014-6-9T19:44:54Z</time></trkpt>
<trkpt lat="46.37180000" lon="5.35951667"><ele></ele><time>2014-6-9T19:44:57Z</time></trkpt>
<trkpt lat="46.37185000" lon="5.35925000"><ele></ele><time>2014-6-9T19:45:0Z</time></trkpt>
<trkpt lat="46.37186667" lon="5.35891667"><ele></ele><time>2014-6-9T19:45:3Z</time></trkpt>
<trkpt lat="46.37191667" lon="5.35855000"><ele></ele><time>2014-6-9T19:45:6Z</time></trkpt>
<trkpt lat="46.37180000" lon="5.35843333"><ele></ele><time>2014-6-9T19:45:9Z</time></trkpt>
<trkpt lat="46.37166667" lon="5.35851667"><ele></ele><time>2014-6-9T19:45:12Z</time></trkpt>
<trkpt lat="46.37090000" lon="5.35891667"><ele></ele><time>2014-6-9T19:45:15Z</time></trkpt>
<trkpt lat="46.37078333" lon="5.35876667"><ele></ele><time>2014-6-9T19:45:18Z</time></trkpt>
<trkpt lat="46.37068333" lon="5.35853333"><ele></ele><time>2014-6-9T19:45:21Z</time></trkpt>
<trkpt lat="46.37061667" lon="5.35826667"><ele></ele><time>2014-6-9T19:45:24Z</time></trkpt>
<trkpt lat="46.37043333" lon="5.35766667"><ele></ele><time>2014-6-9T19:45:27Z</time></trkpt>
<trkpt lat="46.37036667" lon="5.35738333"><ele></ele><time>2014-6-9T19:45:30Z</time></trkpt>
<trkpt lat="46.37033333" lon="5.35710000"><ele></ele><time>2014-6-9T19:45:33Z</time></trkpt>
<trkpt lat="46.37031667" lon="5.35681667"><ele></ele><time>2014-6-9T19:45:36Z</time></trkpt>
<trkpt lat="46.37026667" lon="5.35663333"><ele></ele><time>2014-6-9T19:45:39Z</time></trkpt>
<trkpt lat="46.37018333" lon="5.35640000"><ele></ele><time>2014-6-9T19:45:42Z</time></trkpt>
<trkpt lat="46.37008333" lon="5.35613333"><ele></ele><time>2014-6-9T19:45:45Z</time></trkpt>
<trkpt lat="46.36996667" lon="5.35580000"><ele></ele><time>2014-6-9T19:45:48Z</time></trkpt>
<trkpt lat="46.36990000" lon="5.35556667"><ele></ele><time>2014-6-9T19:45:51Z</time></trkpt>
<trkpt lat="46.36991667" lon="5.35536667"><ele></ele><time>2014-6-9T19:45:54Z</time></trkpt>
<trkpt lat="46.36990000" lon="5.35511667"><ele></ele><time>2014-6-9T19:45:57Z</time></trkpt>
<trkpt lat="46.36981667" lon="5.35486667"><ele></ele><time>2014-6-9T19:46:0Z</time></trkpt>
<trkpt lat="46.36971667" lon="5.35466667"><ele></ele><time>2014-6-9T19:46:3Z</time></trkpt>
<trkpt lat="46.36958333" lon="5.35445000"><ele></ele><time>2014-6-9T19:46:6Z</time></trkpt>
<trkpt lat="46.36938333" lon="5.35423333"><ele></ele><time>2014-6-9T19:46:9Z</time></trkpt>
<trkpt lat="46.36905000" lon="5.35388333"><ele></ele><time>2014-6-9T19:46:12Z</time></trkpt>
<trkpt lat="46.36896667" lon="5.35371667"><ele></ele><time>2014-6-9T19:46:15Z</time></trkpt>
<trkpt lat="46.36881667" lon="5.35340000"><ele></ele><time>2014-6-9T19:46:18Z</time></trkpt>
<trkpt lat="46.36871667" lon="5.35306667"><ele></ele><time>2014-6-9T19:46:21Z</time></trkpt>
<trkpt lat="46.36870000" lon="5.35275000"><ele></ele><time>2014-6-9T19:46:24Z</time></trkpt>
<trkpt lat="46.36861667" lon="5.35241667"><ele></ele><time>2014-6-9T19:46:27Z</time></trkpt>
<trkpt lat="46.36855000" lon="5.35220000"><ele></ele><time>2014-6-9T19:46:30Z</time></trkpt>
<trkpt lat="46.36845000" lon="5.35198333"><ele></ele><time>2014-6-9T19:46:33Z</time></trkpt>
<trkpt lat="46.36833333" lon="5.35165000"><ele></ele><time>2014-6-9T19:46:36Z</time></trkpt>
<trkpt lat="46.36823333" lon="5.35133333"><ele></ele><time>2014-6-9T19:46:39Z</time></trkpt>
<trkpt lat="46.36810000" lon="5.35083333"><ele></ele><time>2014-6-9T19:46:42Z</time></trkpt>
<trkpt lat="46.36793333" lon="5.35075000"><ele></ele><time>2014-6-9T19:46:45Z</time></trkpt>
<trkpt lat="46.36776667" lon="5.35076667"><ele></ele><time>2014-6-9T19:46:48Z</time></trkpt>
<trkpt lat="46.36761667" lon="5.35061667"><ele></ele><time>2014-6-9T19:46:51Z</time></trkpt>
<trkpt lat="46.36745000" lon="5.35043333"><ele></ele><time>2014-6-9T19:46:54Z</time></trkpt>
<trkpt lat="46.36731667" lon="5.35023333"><ele></ele><time>2014-6-9T19:46:57Z</time></trkpt>
<trkpt lat="46.36716667" lon="5.35000000"><ele></ele><time>2014-6-9T19:47:0Z</time></trkpt>
<trkpt lat="46.36698333" lon="5.34981667"><ele></ele><time>2014-6-9T19:47:3Z</time></trkpt>
<trkpt lat="46.36671667" lon="5.34956667"><ele></ele><time>2014-6-9T19:47:6Z</time></trkpt>
<trkpt lat="46.36658333" lon="5.34943333"><ele></ele><time>2014-6-9T19:47:9Z</time></trkpt>
<trkpt lat="46.36640000" lon="5.34935000"><ele></ele><time>2014-6-9T19:47:12Z</time></trkpt>
<trkpt lat="46.36631667" lon="5.34918333"><ele></ele><time>2014-6-9T19:47:15Z</time></trkpt>
<trkpt lat="46.36640000" lon="5.34896667"><ele></ele><time>2014-6-9T19:47:18Z</time></trkpt>
<trkpt lat="46.36645000" lon="5.34873333"><ele></ele><time>2014-6-9T19:47:21Z</time></trkpt>
<trkpt lat="46.36653333" lon="5.34856667"><ele></ele><time>2014-6-9T19:47:24Z</time></trkpt>
<trkpt lat="46.36638333" lon="5.34843333"><ele></ele><time>2014-6-9T19:47:27Z</time></trkpt>
<trkpt lat="46.36623333" lon="5.34841667"><ele></ele><time>2014-6-9T19:47:30Z</time></trkpt>
<trkpt lat="46.36608333" lon="5.34843333"><ele></ele><time>2014-6-9T19:47:33Z</time></trkpt>
<trkpt lat="46.36590000" lon="5.34846667"><ele></ele><time>2014-6-9T19:47:36Z</time></trkpt>
<trkpt lat="46.36573333" lon="5.34846667"><ele></ele><time>2014-6-9T19:47:39Z</time></trkpt>
<trkpt lat="46.36551667" lon="5.34846667"><ele></ele><time>2014-6-9T19:47:42Z</time></trkpt>
<trkpt lat="46.36511667" lon="5.34845000"><ele></ele><time>2014-6-9T19:47:45Z</time></trkpt>
<trkpt lat="46.36495000" lon="5.34843333"><ele></ele><time>2014-6-9T19:47:48Z</time></trkpt>
<trkpt lat="46.36496667" lon="5.34863333"><ele></ele><time>2014-6-9T19:47:51Z</time></trkpt>
<trkpt lat="46.36506667" lon="5.34886667"><ele></ele><time>2014-6-9T19:47:54Z</time></trkpt>
<trkpt lat="46.36515000" lon="5.34916667"><ele></ele><time>2014-6-9T19:47:57Z</time></trkpt>
<trkpt lat="46.36520000" lon="5.34948333"><ele></ele><time>2014-6-9T19:48:0Z</time></trkpt>
<trkpt lat="46.36525000" lon="5.34980000"><ele></ele><time>2014-6-9T19:48:3Z</time></trkpt>
<trkpt lat="46.36520000" lon="5.35003333"><ele></ele><time>2014-6-9T19:48:6Z</time></trkpt>
<trkpt lat="46.36506667" lon="5.34993333"><ele></ele><time>2014-6-9T19:48:9Z</time></trkpt>
<trkpt lat="46.36493333" lon="5.34968333"><ele></ele><time>2014-6-9T19:48:12Z</time></trkpt>
<trkpt lat="46.36468333" lon="5.34926667"><ele></ele><time>2014-6-9T19:48:15Z</time></trkpt>
<trkpt lat="46.36451667" lon="5.34898333"><ele></ele><time>2014-6-9T19:48:18Z</time></trkpt>
<trkpt lat="46.36426667" lon="5.34848333"><ele></ele><time>2014-6-9T19:48:21Z</time></trkpt>
<trkpt lat="46.36411667" lon="5.34821667"><ele></ele><time>2014-6-9T19:48:24Z</time></trkpt>
<trkpt lat="46.36391667" lon="5.34806667"><ele></ele><time>2014-6-9T19:48:27Z</time></trkpt>
<trkpt lat="46.36381667" lon="5.34776667"><ele></ele><time>2014-6-9T19:48:30Z</time></trkpt>
<trkpt lat="46.36383333" lon="5.34756667"><ele></ele><time>2014-6-9T19:48:33Z</time></trkpt>
<trkpt lat="46.36385000" lon="5.34736667"><ele></ele><time>2014-6-9T19:48:36Z</time></trkpt>
<trkpt lat="46.36400000" lon="5.34718333"><ele></ele><time>2014-6-9T19:48:39Z</time></trkpt>
<trkpt lat="46.36390000" lon="5.34731667"><ele></ele><time>2014-6-9T19:48:42Z</time></trkpt>
<trkpt lat="46.36386667" lon="5.34705000"><ele></ele><time>2014-6-9T19:48:45Z</time></trkpt>
<trkpt lat="46.36386667" lon="5.34665000"><ele></ele><time>2014-6-9T19:48:48Z</time></trkpt>
<trkpt lat="46.36385000" lon="5.34605000"><ele></ele><time>2014-6-9T19:48:51Z</time></trkpt>
<trkpt lat="46.36371667" lon="5.34580000"><ele></ele><time>2014-6-9T19:48:54Z</time></trkpt>
<trkpt lat="46.36351667" lon="5.34585000"><ele></ele><time>2014-6-9T19:48:57Z</time></trkpt>
<trkpt lat="46.36333333" lon="5.34595000"><ele></ele><time>2014-6-9T19:49:0Z</time></trkpt>
<trkpt lat="46.36320000" lon="5.34600000"><ele></ele><time>2014-6-9T19:49:3Z</time></trkpt>
<trkpt lat="46.36303333" lon="5.34601667"><ele></ele><time>2014-6-9T19:49:6Z</time></trkpt>
<trkpt lat="46.36288333" lon="5.34598333"><ele></ele><time>2014-6-9T19:49:9Z</time></trkpt>
<trkpt lat="46.36275000" lon="5.34591667"><ele></ele><time>2014-6-9T19:49:12Z</time></trkpt>
<trkpt lat="46.36260000" lon="5.34581667"><ele></ele><time>2014-6-9T19:49:15Z</time></trkpt>
<trkpt lat="46.36241667" lon="5.34568333"><ele></ele><time>2014-6-9T19:49:18Z</time></trkpt>
<trkpt lat="46.36228333" lon="5.34561667"><ele></ele><time>2014-6-9T19:49:21Z</time></trkpt>
<trkpt lat="46.36210000" lon="5.34555000"><ele></ele><time>2014-6-9T19:49:24Z</time></trkpt>
<trkpt lat="46.36196667" lon="5.34548333"><ele></ele><time>2014-6-9T19:49:27Z</time></trkpt>
<trkpt lat="46.36181667" lon="5.34541667"><ele></ele><time>2014-6-9T19:49:30Z</time></trkpt>
<trkpt lat="46.36168333" lon="5.34538333"><ele></ele><time>2014-6-9T19:49:33Z</time></trkpt>
<trkpt lat="46.36153333" lon="5.34536667"><ele></ele><time>2014-6-9T19:49:36Z</time></trkpt>
<trkpt lat="46.36135000" lon="5.34538333"><ele></ele><time>2014-6-9T19:49:39Z</time></trkpt>
<trkpt lat="46.36120000" lon="5.34543333"><ele></ele><time>2014-6-9T19:49:42Z</time></trkpt>
<trkpt lat="46.36105000" lon="5.34556667"><ele></ele><time>2014-6-9T19:49:45Z</time></trkpt>
<trkpt lat="46.36096667" lon="5.34576667"><ele></ele><time>2014-6-9T19:49:48Z</time></trkpt>
<trkpt lat="46.36088333" lon="5.34595000"><ele></ele><time>2014-6-9T19:49:51Z</time></trkpt>
<trkpt lat="46.36080000" lon="5.34611667"><ele></ele><time>2014-6-9T19:49:54Z</time></trkpt>
<trkpt lat="46.36068333" lon="5.34625000"><ele></ele><time>2014-6-9T19:49:57Z</time></trkpt>
<trkpt lat="46.36048333" lon="5.34646667"><ele></ele><time>2014-6-9T19:50:0Z</time></trkpt>
<trkpt lat="46.36038333" lon="5.34661667"><ele></ele><time>2014-6-9T19:50:3Z</time></trkpt>
<trkpt lat="46.36028333" lon="5.34676667"><ele></ele><time>2014-6-9T19:50:6Z</time></trkpt>
<trkpt lat="46.36018333" lon="5.34691667"><ele></ele><time>2014-6-9T19:50:9Z</time></trkpt>
<trkpt lat="46.36006667" lon="5.34705000"><ele></ele><time>2014-6-9T19:50:12Z</time></trkpt>
<trkpt lat="46.35993333" lon="5.34716667"><ele></ele><time>2014-6-9T19:50:15Z</time></trkpt>
<trkpt lat="46.35973333" lon="5.34731667"><ele></ele><time>2014-6-9T19:50:18Z</time></trkpt>
<trkpt lat="46.35960000" lon="5.34748333"><ele></ele><time>2014-6-9T19:50:21Z</time></trkpt>
<trkpt lat="46.35950000" lon="5.34761667"><ele></ele><time>2014-6-9T19:50:24Z</time></trkpt>
<trkpt lat="46.35941667" lon="5.34780000"><ele></ele><time>2014-6-9T19:50:27Z</time></trkpt>
<trkpt lat="46.35935000" lon="5.34801667"><ele></ele><time>2014-6-9T19:50:30Z</time></trkpt>
<trkpt lat="46.35930000" lon="5.34828333"><ele></ele><time>2014-6-9T19:50:33Z</time></trkpt>
<trkpt lat="46.35925000" lon="5.34853333"><ele></ele><time>2014-6-9T19:50:36Z</time></trkpt>
<trkpt lat="46.35916667" lon="5.34876667"><ele></ele><time>2014-6-9T19:50:39Z</time></trkpt>
<trkpt lat="46.35906667" lon="5.34898333"><ele></ele><time>2014-6-9T19:50:42Z</time></trkpt>
<trkpt lat="46.35896667" lon="5.34916667"><ele></ele><time>2014-6-9T19:50:45Z</time></trkpt>
<trkpt lat="46.35878333" lon="5.34928333"><ele></ele><time>2014-6-9T19:50:48Z</time></trkpt>
<trkpt lat="46.35863333" lon="5.34940000"><ele></ele><time>2014-6-9T19:50:51Z</time></trkpt>
<trkpt lat="46.35848333" lon="5.34961667"><ele></ele><time>2014-6-9T19:50:54Z</time></trkpt>
<trkpt lat="46.35831667" lon="5.34983333"><ele></ele><time>2014-6-9T19:50:57Z</time></trkpt>
<trkpt lat="46.35800000" lon="5.35030000"><ele></ele><time>2014-6-9T19:51:0Z</time></trkpt>
<trkpt lat="46.35796667" lon="5.35058333"><ele></ele><time>2014-6-9T19:51:3Z</time></trkpt>
<trkpt lat="46.35778333" lon="5.35063333"><ele></ele><time>2014-6-9T19:51:6Z</time></trkpt>
<trkpt lat="46.35761667" lon="5.35065000"><ele></ele><time>2014-6-9T19:51:9Z</time></trkpt>
<trkpt lat="46.35743333" lon="5.35065000"><ele></ele><time>2014-6-9T19:51:12Z</time></trkpt>
<trkpt lat="46.35718333" lon="5.35063333"><ele></ele><time>2014-6-9T19:51:15Z</time></trkpt>
<trkpt lat="46.35696667" lon="5.35063333"><ele></ele><time>2014-6-9T19:51:18Z</time></trkpt>
<trkpt lat="46.35680000" lon="5.35065000"><ele></ele><time>2014-6-9T19:51:21Z</time></trkpt>
<trkpt lat="46.35663333" lon="5.35070000"><ele></ele><time>2014-6-9T19:51:24Z</time></trkpt>
<trkpt lat="46.35648333" lon="5.35073333"><ele></ele><time>2014-6-9T19:51:27Z</time></trkpt>
<trkpt lat="46.35631667" lon="5.35081667"><ele></ele><time>2014-6-9T19:51:30Z</time></trkpt>
<trkpt lat="46.35615000" lon="5.35090000"><ele></ele><time>2014-6-9T19:51:33Z</time></trkpt>
<trkpt lat="46.35595000" lon="5.35103333"><ele></ele><time>2014-6-9T19:51:36Z</time></trkpt>
<trkpt lat="46.35578333" lon="5.35111667"><ele></ele><time>2014-6-9T19:51:39Z</time></trkpt>
<trkpt lat="46.35523333" lon="5.35143333"><ele></ele><time>2014-6-9T19:51:42Z</time></trkpt>
<trkpt lat="46.35491667" lon="5.35160000"><ele></ele><time>2014-6-9T19:51:45Z</time></trkpt>
<trkpt lat="46.35470000" lon="5.35165000"><ele></ele><time>2014-6-9T19:51:48Z</time></trkpt>
<trkpt lat="46.35448333" lon="5.35173333"><ele></ele><time>2014-6-9T19:51:51Z</time></trkpt>
<trkpt lat="46.35428333" lon="5.35185000"><ele></ele><time>2014-6-9T19:51:54Z</time></trkpt>
<trkpt lat="46.35410000" lon="5.35196667"><ele></ele><time>2014-6-9T19:51:57Z</time></trkpt>
<trkpt lat="46.35350000" lon="5.35233333"><ele></ele><time>2014-6-9T19:52:0Z</time></trkpt>
<trkpt lat="46.35331667" lon="5.35226667"><ele></ele><time>2014-6-9T19:52:3Z</time></trkpt>
<trkpt lat="46.35311667" lon="5.35218333"><ele></ele><time>2014-6-9T19:52:6Z</time></trkpt>
<trkpt lat="46.35293333" lon="5.35218333"><ele></ele><time>2014-6-9T19:52:9Z</time></trkpt>
<trkpt lat="46.35271667" lon="5.35210000"><ele></ele><time>2014-6-9T19:52:12Z</time></trkpt>
<trkpt lat="46.35253333" lon="5.35203333"><ele></ele><time>2014-6-9T19:52:15Z</time></trkpt>
<trkpt lat="46.35233333" lon="5.35201667"><ele></ele><time>2014-6-9T19:52:18Z</time></trkpt>
<trkpt lat="46.35211667" lon="5.35196667"><ele></ele><time>2014-6-9T19:52:21Z</time></trkpt>
<trkpt lat="46.35176667" lon="5.35190000"><ele></ele><time>2014-6-9T19:52:24Z</time></trkpt>
<trkpt lat="46.35158333" lon="5.35186667"><ele></ele><time>2014-6-9T19:52:27Z</time></trkpt>
<trkpt lat="46.35143333" lon="5.35186667"><ele></ele><time>2014-6-9T19:52:30Z</time></trkpt>
<trkpt lat="46.35146667" lon="5.35206667"><ele></ele><time>2014-6-9T19:52:33Z</time></trkpt>
<trkpt lat="46.35148333" lon="5.35226667"><ele></ele><time>2014-6-9T19:52:36Z</time></trkpt>
<trkpt lat="46.35140000" lon="5.35245000"><ele></ele><time>2014-6-9T19:52:39Z</time></trkpt>
<trkpt lat="46.35125000" lon="5.35260000"><ele></ele><time>2014-6-9T19:52:42Z</time></trkpt>
<trkpt lat="46.35108333" lon="5.35271667"><ele></ele><time>2014-6-9T19:52:45Z</time></trkpt>
<trkpt lat="46.35096667" lon="5.35281667"><ele></ele><time>2014-6-9T19:52:48Z</time></trkpt>
<trkpt lat="46.35075000" lon="5.35283333"><ele></ele><time>2014-6-9T19:52:51Z</time></trkpt>
<trkpt lat="46.35060000" lon="5.35286667"><ele></ele><time>2014-6-9T19:52:54Z</time></trkpt>
<trkpt lat="46.35046667" lon="5.35283333"><ele></ele><time>2014-6-9T19:52:57Z</time></trkpt>
<trkpt lat="46.35028333" lon="5.35281667"><ele></ele><time>2014-6-9T19:53:0Z</time></trkpt>
<trkpt lat="46.34996667" lon="5.35276667"><ele></ele><time>2014-6-9T19:53:3Z</time></trkpt>
<trkpt lat="46.34938333" lon="5.35266667"><ele></ele><time>2014-6-9T19:53:6Z</time></trkpt>
<trkpt lat="46.34915000" lon="5.35275000"><ele></ele><time>2014-6-9T19:53:9Z</time></trkpt>
<trkpt lat="46.34873333" lon="5.35293333"><ele></ele><time>2014-6-9T19:53:12Z</time></trkpt>
<trkpt lat="46.34853333" lon="5.35305000"><ele></ele><time>2014-6-9T19:53:15Z</time></trkpt>
<trkpt lat="46.34833333" lon="5.35320000"><ele></ele><time>2014-6-9T19:53:18Z</time></trkpt>
<trkpt lat="46.34803333" lon="5.35340000"><ele></ele><time>2014-6-9T19:53:21Z</time></trkpt>
<trkpt lat="46.34788333" lon="5.35351667"><ele></ele><time>2014-6-9T19:53:24Z</time></trkpt>
<trkpt lat="46.34773333" lon="5.35365000"><ele></ele><time>2014-6-9T19:53:27Z</time></trkpt>
<trkpt lat="46.34725000" lon="5.35408333"><ele></ele><time>2014-6-9T19:53:30Z</time></trkpt>
<trkpt lat="46.34706667" lon="5.35423333"><ele></ele><time>2014-6-9T19:53:33Z</time></trkpt>
<trkpt lat="46.34673333" lon="5.35451667"><ele></ele><time>2014-6-9T19:53:36Z</time></trkpt>
<trkpt lat="46.34655000" lon="5.35476667"><ele></ele><time>2014-6-9T19:53:39Z</time></trkpt>
<trkpt lat="46.34580000" lon="5.35556667"><ele></ele><time>2014-6-9T19:53:42Z</time></trkpt>
<trkpt lat="46.34570000" lon="5.35570000"><ele></ele><time>2014-6-9T19:53:45Z</time></trkpt>
<trkpt lat="46.34565000" lon="5.35588333"><ele></ele><time>2014-6-9T19:53:48Z</time></trkpt>
<trkpt lat="46.34558333" lon="5.35613333"><ele></ele><time>2014-6-9T19:53:51Z</time></trkpt>
<trkpt lat="46.34550000" lon="5.35633333"><ele></ele><time>2014-6-9T19:53:54Z</time></trkpt>
<trkpt lat="46.34535000" lon="5.35671667"><ele></ele><time>2014-6-9T19:53:57Z</time></trkpt>
<trkpt lat="46.34526667" lon="5.35688333"><ele></ele><time>2014-6-9T19:54:0Z</time></trkpt>
<trkpt lat="46.34511667" lon="5.35713333"><ele></ele><time>2014-6-9T19:54:3Z</time></trkpt>
<trkpt lat="46.34501667" lon="5.35726667"><ele></ele><time>2014-6-9T19:54:6Z</time></trkpt>
<trkpt lat="46.34486667" lon="5.35740000"><ele></ele><time>2014-6-9T19:54:9Z</time></trkpt>
<trkpt lat="46.34475000" lon="5.35750000"><ele></ele><time>2014-6-9T19:54:12Z</time></trkpt>
<trkpt lat="46.34461667" lon="5.35765000"><ele></ele><time>2014-6-9T19:54:15Z</time></trkpt>
<trkpt lat="46.34443333" lon="5.35785000"><ele></ele><time>2014-6-9T19:54:18Z</time></trkpt>
<trkpt lat="46.34431667" lon="5.35798333"><ele></ele><time>2014-6-9T19:54:21Z</time></trkpt>
<trkpt lat="46.34421667" lon="5.35813333"><ele></ele><time>2014-6-9T19:54:24Z</time></trkpt>
<trkpt lat="46.34411667" lon="5.35830000"><ele></ele><time>2014-6-9T19:54:27Z</time></trkpt>
<trkpt lat="46.34401667" lon="5.35848333"><ele></ele><time>2014-6-9T19:54:30Z</time></trkpt>
<trkpt lat="46.34391667" lon="5.35865000"><ele></ele><time>2014-6-9T19:54:33Z</time></trkpt>
<trkpt lat="46.34386667" lon="5.35885000"><ele></ele><time>2014-6-9T19:54:36Z</time></trkpt>
<trkpt lat="46.34381667" lon="5.35905000"><ele></ele><time>2014-6-9T19:54:39Z</time></trkpt>
<trkpt lat="46.34378333" lon="5.35933333"><ele></ele><time>2014-6-9T19:54:42Z</time></trkpt>
<trkpt lat="46.34373333" lon="5.35961667"><ele></ele><time>2014-6-9T19:54:45Z</time></trkpt>
<trkpt lat="46.34371667" lon="5.35981667"><ele></ele><time>2014-6-9T19:54:48Z</time></trkpt>
<trkpt lat="46.34375000" lon="5.36003333"><ele></ele><time>2014-6-9T19:54:51Z</time></trkpt>
<trkpt lat="46.34380000" lon="5.36021667"><ele></ele><time>2014-6-9T19:54:54Z</time></trkpt>
<trkpt lat="46.34386667" lon="5.36045000"><ele></ele><time>2014-6-9T19:54:57Z</time></trkpt>
<trkpt lat="46.34395000" lon="5.36066667"><ele></ele><time>2014-6-9T19:55:0Z</time></trkpt>
<trkpt lat="46.34403333" lon="5.36088333"><ele></ele><time>2014-6-9T19:55:3Z</time></trkpt>
<trkpt lat="46.34411667" lon="5.36106667"><ele></ele><time>2014-6-9T19:55:6Z</time></trkpt>
<trkpt lat="46.34415000" lon="5.36130000"><ele></ele><time>2014-6-9T19:55:9Z</time></trkpt>
<trkpt lat="46.34415000" lon="5.36153333"><ele></ele><time>2014-6-9T19:55:12Z</time></trkpt>
<trkpt lat="46.34415000" lon="5.36175000"><ele></ele><time>2014-6-9T19:55:15Z</time></trkpt>
<trkpt lat="46.34415000" lon="5.36203333"><ele></ele><time>2014-6-9T19:55:18Z</time></trkpt>
<trkpt lat="46.34416667" lon="5.36251667"><ele></ele><time>2014-6-9T19:55:21Z</time></trkpt>
<trkpt lat="46.34420000" lon="5.36278333"><ele></ele><time>2014-6-9T19:55:24Z</time></trkpt>
<trkpt lat="46.34420000" lon="5.36308333"><ele></ele><time>2014-6-9T19:55:27Z</time></trkpt>
<trkpt lat="46.34425000" lon="5.36333333"><ele></ele><time>2014-6-9T19:55:30Z</time></trkpt>
<trkpt lat="46.34415000" lon="5.36320000"><ele></ele><time>2014-6-9T19:55:33Z</time></trkpt>
<trkpt lat="46.34405000" lon="5.36298333"><ele></ele><time>2014-6-9T19:55:36Z</time></trkpt>
<trkpt lat="46.34388333" lon="5.36283333"><ele></ele><time>2014-6-9T19:55:39Z</time></trkpt>
<trkpt lat="46.34368333" lon="5.36270000"><ele></ele><time>2014-6-9T19:55:42Z</time></trkpt>
<trkpt lat="46.34328333" lon="5.36231667"><ele></ele><time>2014-6-9T19:55:45Z</time></trkpt>
<trkpt lat="46.34308333" lon="5.36216667"><ele></ele><time>2014-6-9T19:55:48Z</time></trkpt>
<trkpt lat="46.34295000" lon="5.36205000"><ele></ele><time>2014-6-9T19:55:51Z</time></trkpt>
<trkpt lat="46.34298333" lon="5.36180000"><ele></ele><time>2014-6-9T19:55:54Z</time></trkpt>
<trkpt lat="46.34306667" lon="5.36138333"><ele></ele><time>2014-6-9T19:55:57Z</time></trkpt>
<trkpt lat="46.34305000" lon="5.36118333"><ele></ele><time>2014-6-9T19:56:0Z</time></trkpt>
<trkpt lat="46.34288333" lon="5.36116667"><ele></ele><time>2014-6-9T19:56:3Z</time></trkpt>
<trkpt lat="46.34276667" lon="5.36136667"><ele></ele><time>2014-6-9T19:56:6Z</time></trkpt>
<trkpt lat="46.34265000" lon="5.36158333"><ele></ele><time>2014-6-9T19:56:9Z</time></trkpt>
<trkpt lat="46.34255000" lon="5.36185000"><ele></ele><time>2014-6-9T19:56:12Z</time></trkpt>
<trkpt lat="46.34251667" lon="5.36206667"><ele></ele><time>2014-6-9T19:56:15Z</time></trkpt>
<trkpt lat="46.34253333" lon="5.36233333"><ele></ele><time>2014-6-9T19:56:18Z</time></trkpt>
<trkpt lat="46.34256667" lon="5.36266667"><ele></ele><time>2014-6-9T19:56:21Z</time></trkpt>
<trkpt lat="46.34260000" lon="5.36288333"><ele></ele><time>2014-6-9T19:56:24Z</time></trkpt>
<trkpt lat="46.34261667" lon="5.36311667"><ele></ele><time>2014-6-9T19:56:27Z</time></trkpt>
<trkpt lat="46.34265000" lon="5.36348333"><ele></ele><time>2014-6-9T19:56:30Z</time></trkpt>
<trkpt lat="46.34265000" lon="5.36371667"><ele></ele><time>2014-6-9T19:56:33Z</time></trkpt>
<trkpt lat="46.34260000" lon="5.36391667"><ele></ele><time>2014-6-9T19:56:36Z</time></trkpt>
<trkpt lat="46.34251667" lon="5.36413333"><ele></ele><time>2014-6-9T19:56:39Z</time></trkpt>
<trkpt lat="46.34241667" lon="5.36436667"><ele></ele><time>2014-6-9T19:56:42Z</time></trkpt>
<trkpt lat="46.34228333" lon="5.36458333"><ele></ele><time>2014-6-9T19:56:45Z</time></trkpt>
<trkpt lat="46.34215000" lon="5.36475000"><ele></ele><time>2014-6-9T19:56:48Z</time></trkpt>
<trkpt lat="46.34198333" lon="5.36496667"><ele></ele><time>2014-6-9T19:56:51Z</time></trkpt>
<trkpt lat="46.34178333" lon="5.36516667"><ele></ele><time>2014-6-9T19:56:54Z</time></trkpt>
<trkpt lat="46.34166667" lon="5.36533333"><ele></ele><time>2014-6-9T19:56:57Z</time></trkpt>
<trkpt lat="46.34153333" lon="5.36550000"><ele></ele><time>2014-6-9T19:57:0Z</time></trkpt>
<trkpt lat="46.34141667" lon="5.36565000"><ele></ele><time>2014-6-9T19:57:3Z</time></trkpt>
<trkpt lat="46.34130000" lon="5.36580000"><ele></ele><time>2014-6-9T19:57:6Z</time></trkpt>
<trkpt lat="46.34111667" lon="5.36603333"><ele></ele><time>2014-6-9T19:57:9Z</time></trkpt>
<trkpt lat="46.34096667" lon="5.36620000"><ele></ele><time>2014-6-9T19:57:12Z</time></trkpt>
<trkpt lat="46.34085000" lon="5.36631667"><ele></ele><time>2014-6-9T19:57:15Z</time></trkpt>
<trkpt lat="46.34071667" lon="5.36641667"><ele></ele><time>2014-6-9T19:57:18Z</time></trkpt>
<trkpt lat="46.34058333" lon="5.36655000"><ele></ele><time>2014-6-9T19:57:21Z</time></trkpt>
<trkpt lat="46.34045000" lon="5.36666667"><ele></ele><time>2014-6-9T19:57:24Z</time></trkpt>
<trkpt lat="46.34036667" lon="5.36683333"><ele></ele><time>2014-6-9T19:57:27Z</time></trkpt>
<trkpt lat="46.34033333" lon="5.36705000"><ele></ele><time>2014-6-9T19:57:30Z</time></trkpt>
<trkpt lat="46.34026667" lon="5.36733333"><ele></ele><time>2014-6-9T19:57:33Z</time></trkpt>
<trkpt lat="46.34018333" lon="5.36755000"><ele></ele><time>2014-6-9T19:57:36Z</time></trkpt>
<trkpt lat="46.34003333" lon="5.36770000"><ele></ele><time>2014-6-9T19:57:39Z</time></trkpt>
<trkpt lat="46.33990000" lon="5.36773333"><ele></ele><time>2014-6-9T19:57:42Z</time></trkpt>
<trkpt lat="46.33973333" lon="5.36776667"><ele></ele><time>2014-6-9T19:57:45Z</time></trkpt>
<trkpt lat="46.33955000" lon="5.36786667"><ele></ele><time>2014-6-9T19:57:48Z</time></trkpt>
<trkpt lat="46.33931667" lon="5.36806667"><ele></ele><time>2014-6-9T19:57:51Z</time></trkpt>
<trkpt lat="46.33920000" lon="5.36820000"><ele></ele><time>2014-6-9T19:57:54Z</time></trkpt>
<trkpt lat="46.33900000" lon="5.36811667"><ele></ele><time>2014-6-9T19:57:57Z</time></trkpt>
<trkpt lat="46.33873333" lon="5.36798333"><ele></ele><time>2014-6-9T19:58:0Z</time></trkpt>
<trkpt lat="46.33858333" lon="5.36795000"><ele></ele><time>2014-6-9T19:58:3Z</time></trkpt>
<trkpt lat="46.33823333" lon="5.36786667"><ele></ele><time>2014-6-9T19:58:6Z</time></trkpt>
<trkpt lat="46.33808333" lon="5.36778333"><ele></ele><time>2014-6-9T19:58:9Z</time></trkpt>
<trkpt lat="46.33791667" lon="5.36768333"><ele></ele><time>2014-6-9T19:58:12Z</time></trkpt>
<trkpt lat="46.33776667" lon="5.36756667"><ele></ele><time>2014-6-9T19:58:15Z</time></trkpt>
<trkpt lat="46.33753333" lon="5.36736667"><ele></ele><time>2014-6-9T19:58:18Z</time></trkpt>
<trkpt lat="46.33715000" lon="5.36700000"><ele></ele><time>2014-6-9T19:58:21Z</time></trkpt>
<trkpt lat="46.33701667" lon="5.36683333"><ele></ele><time>2014-6-9T19:58:24Z</time></trkpt>
<trkpt lat="46.33695000" lon="5.36665000"><ele></ele><time>2014-6-9T19:58:27Z</time></trkpt>
<trkpt lat="46.33686667" lon="5.36635000"><ele></ele><time>2014-6-9T19:58:30Z</time></trkpt>
<trkpt lat="46.33673333" lon="5.36581667"><ele></ele><time>2014-6-9T19:58:33Z</time></trkpt>
<trkpt lat="46.33658333" lon="5.36565000"><ele></ele><time>2014-6-9T19:58:36Z</time></trkpt>
<trkpt lat="46.33641667" lon="5.36563333"><ele></ele><time>2014-6-9T19:58:39Z</time></trkpt>
<trkpt lat="46.33620000" lon="5.36565000"><ele></ele><time>2014-6-9T19:58:42Z</time></trkpt>
<trkpt lat="46.33608333" lon="5.36583333"><ele></ele><time>2014-6-9T19:58:45Z</time></trkpt>
<trkpt lat="46.33591667" lon="5.36608333"><ele></ele><time>2014-6-9T19:58:48Z</time></trkpt>
<trkpt lat="46.33578333" lon="5.36626667"><ele></ele><time>2014-6-9T19:58:51Z</time></trkpt>
<trkpt lat="46.33560000" lon="5.36651667"><ele></ele><time>2014-6-9T19:58:54Z</time></trkpt>
<trkpt lat="46.33551667" lon="5.36668333"><ele></ele><time>2014-6-9T19:58:57Z</time></trkpt>
<trkpt lat="46.33541667" lon="5.36685000"><ele></ele><time>2014-6-9T19:59:0Z</time></trkpt>
<trkpt lat="46.33530000" lon="5.36700000"><ele></ele><time>2014-6-9T19:59:3Z</time></trkpt>
<trkpt lat="46.33508333" lon="5.36728333"><ele></ele><time>2014-6-9T19:59:6Z</time></trkpt>
<trkpt lat="46.33498333" lon="5.36745000"><ele></ele><time>2014-6-9T19:59:9Z</time></trkpt>
<trkpt lat="46.33485000" lon="5.36763333"><ele></ele><time>2014-6-9T19:59:12Z</time></trkpt>
<trkpt lat="46.33475000" lon="5.36776667"><ele></ele><time>2014-6-9T19:59:15Z</time></trkpt>
<trkpt lat="46.33463333" lon="5.36793333"><ele></ele><time>2014-6-9T19:59:18Z</time></trkpt>
<trkpt lat="46.33451667" lon="5.36806667"><ele></ele><time>2014-6-9T19:59:21Z</time></trkpt>
<trkpt lat="46.33436667" lon="5.36816667"><ele></ele><time>2014-6-9T19:59:24Z</time></trkpt>
<trkpt lat="46.33421667" lon="5.36826667"><ele></ele><time>2014-6-9T19:59:27Z</time></trkpt>
<trkpt lat="46.33406667" lon="5.36843333"><ele></ele><time>2014-6-9T19:59:30Z</time></trkpt>
<trkpt lat="46.33391667" lon="5.36858333"><ele></ele><time>2014-6-9T19:59:33Z</time></trkpt>
<trkpt lat="46.33376667" lon="5.36871667"><ele></ele><time>2014-6-9T19:59:36Z</time></trkpt>
<trkpt lat="46.33358333" lon="5.36885000"><ele></ele><time>2014-6-9T19:59:39Z</time></trkpt>
<trkpt lat="46.33340000" lon="5.36895000"><ele></ele><time>2014-6-9T19:59:42Z</time></trkpt>
<trkpt lat="46.33316667" lon="5.36896667"><ele></ele><time>2014-6-9T19:59:45Z</time></trkpt>
<trkpt lat="46.33291667" lon="5.36901667"><ele></ele><time>2014-6-9T19:59:48Z</time></trkpt>
<trkpt lat="46.33270000" lon="5.36910000"><ele></ele><time>2014-6-9T19:59:51Z</time></trkpt>
<trkpt lat="46.33241667" lon="5.36925000"><ele></ele><time>2014-6-9T19:59:54Z</time></trkpt>
<trkpt lat="46.33223333" lon="5.36938333"><ele></ele><time>2014-6-9T19:59:57Z</time></trkpt>
<trkpt lat="46.33190000" lon="5.36960000"><ele></ele><time>2014-6-9T20:0:0Z</time></trkpt>
<trkpt lat="46.33166667" lon="5.36971667"><ele></ele><time>2014-6-9T20:0:3Z</time></trkpt>
<trkpt lat="46.33135000" lon="5.36991667"><ele></ele><time>2014-6-9T20:0:6Z</time></trkpt>
<trkpt lat="46.33118333" lon="5.37003333"><ele></ele><time>2014-6-9T20:0:9Z</time></trkpt>
<trkpt lat="46.33105000" lon="5.37013333"><ele></ele><time>2014-6-9T20:0:12Z</time></trkpt>
<trkpt lat="46.33096667" lon="5.37035000"><ele></ele><time>2014-6-9T20:0:15Z</time></trkpt>
<trkpt lat="46.33088333" lon="5.37060000"><ele></ele><time>2014-6-9T20:0:18Z</time></trkpt>
<trkpt lat="46.33086667" lon="5.37088333"><ele></ele><time>2014-6-9T20:0:21Z</time></trkpt>
<trkpt lat="46.33083333" lon="5.37108333"><ele></ele><time>2014-6-9T20:0:24Z</time></trkpt>
<trkpt lat="46.33073333" lon="5.37126667"><ele></ele><time>2014-6-9T20:0:27Z</time></trkpt>
<trkpt lat="46.33061667" lon="5.37141667"><ele></ele><time>2014-6-9T20:0:30Z</time></trkpt>
<trkpt lat="46.33048333" lon="5.37155000"><ele></ele><time>2014-6-9T20:0:33Z</time></trkpt>
<trkpt lat="46.33036667" lon="5.37168333"><ele></ele><time>2014-6-9T20:0:36Z</time></trkpt>
<trkpt lat="46.33018333" lon="5.37190000"><ele></ele><time>2014-6-9T20:0:39Z</time></trkpt>
<trkpt lat="46.33006667" lon="5.37208333"><ele></ele><time>2014-6-9T20:0:42Z</time></trkpt>
<trkpt lat="46.32990000" lon="5.37226667"><ele></ele><time>2014-6-9T20:0:45Z</time></trkpt>
<trkpt lat="46.32970000" lon="5.37235000"><ele></ele><time>2014-6-9T20:0:48Z</time></trkpt>
<trkpt lat="46.32946667" lon="5.37226667"><ele></ele><time>2014-6-9T20:0:51Z</time></trkpt>
<trkpt lat="46.32926667" lon="5.37210000"><ele></ele><time>2014-6-9T20:0:54Z</time></trkpt>
<trkpt lat="46.32903333" lon="5.37195000"><ele></ele><time>2014-6-9T20:0:57Z</time></trkpt>
<trkpt lat="46.32881667" lon="5.37203333"><ele></ele><time>2014-6-9T20:1:0Z</time></trkpt>
<trkpt lat="46.32861667" lon="5.37221667"><ele></ele><time>2014-6-9T20:1:3Z</time></trkpt>
<trkpt lat="46.32841667" lon="5.37241667"><ele></ele><time>2014-6-9T20:1:6Z</time></trkpt>
<trkpt lat="46.32823333" lon="5.37263333"><ele></ele><time>2014-6-9T20:1:9Z</time></trkpt>
<trkpt lat="46.32816667" lon="5.37291667"><ele></ele><time>2014-6-9T20:1:12Z</time></trkpt>
<trkpt lat="46.32803333" lon="5.37315000"><ele></ele><time>2014-6-9T20:1:15Z</time></trkpt>
<trkpt lat="46.32785000" lon="5.37315000"><ele></ele><time>2014-6-9T20:1:18Z</time></trkpt>
<trkpt lat="46.32771667" lon="5.37306667"><ele></ele><time>2014-6-9T20:1:21Z</time></trkpt>
<trkpt lat="46.32758333" lon="5.37301667"><ele></ele><time>2014-6-9T20:1:24Z</time></trkpt>
<trkpt lat="46.32740000" lon="5.37303333"><ele></ele><time>2014-6-9T20:1:27Z</time></trkpt>
<trkpt lat="46.32725000" lon="5.37311667"><ele></ele><time>2014-6-9T20:1:30Z</time></trkpt>
<trkpt lat="46.32711667" lon="5.37321667"><ele></ele><time>2014-6-9T20:1:33Z</time></trkpt>
<trkpt lat="46.32700000" lon="5.37333333"><ele></ele><time>2014-6-9T20:1:36Z</time></trkpt>
<trkpt lat="46.32690000" lon="5.37346667"><ele></ele><time>2014-6-9T20:1:39Z</time></trkpt>
<trkpt lat="46.32680000" lon="5.37361667"><ele></ele><time>2014-6-9T20:1:42Z</time></trkpt>
<trkpt lat="46.32663333" lon="5.37388333"><ele></ele><time>2014-6-9T20:1:45Z</time></trkpt>
<trkpt lat="46.32650000" lon="5.37405000"><ele></ele><time>2014-6-9T20:1:48Z</time></trkpt>
<trkpt lat="46.32635000" lon="5.37421667"><ele></ele><time>2014-6-9T20:1:51Z</time></trkpt>
<trkpt lat="46.32625000" lon="5.37435000"><ele></ele><time>2014-6-9T20:1:54Z</time></trkpt>
<trkpt lat="46.32616667" lon="5.37453333"><ele></ele><time>2014-6-9T20:1:57Z</time></trkpt>
<trkpt lat="46.32611667" lon="5.37471667"><ele></ele><time>2014-6-9T20:2:0Z</time></trkpt>
<trkpt lat="46.32606667" lon="5.37496667"><ele></ele><time>2014-6-9T20:2:3Z</time></trkpt>
<trkpt lat="46.32596667" lon="5.37516667"><ele></ele><time>2014-6-9T20:2:6Z</time></trkpt>
<trkpt lat="46.32580000" lon="5.37515000"><ele></ele><time>2014-6-9T20:2:9Z</time></trkpt>
<trkpt lat="46.32571667" lon="5.37496667"><ele></ele><time>2014-6-9T20:2:12Z</time></trkpt>
<trkpt lat="46.32570000" lon="5.37473333"><ele></ele><time>2014-6-9T20:2:15Z</time></trkpt>
<trkpt lat="46.32570000" lon="5.37453333"><ele></ele><time>2014-6-9T20:2:18Z</time></trkpt>
<trkpt lat="46.32570000" lon="5.37413333"><ele></ele><time>2014-6-9T20:2:21Z</time></trkpt>
<trkpt lat="46.32568333" lon="5.37376667"><ele></ele><time>2014-6-9T20:2:24Z</time></trkpt>
<trkpt lat="46.32565000" lon="5.37355000"><ele></ele><time>2014-6-9T20:2:27Z</time></trkpt>
<trkpt lat="46.32553333" lon="5.37266667"><ele></ele><time>2014-6-9T20:2:30Z</time></trkpt>
<trkpt lat="46.32543333" lon="5.37198333"><ele></ele><time>2014-6-9T20:2:33Z</time></trkpt>
<trkpt lat="46.32540000" lon="5.37176667"><ele></ele><time>2014-6-9T20:2:36Z</time></trkpt>
<trkpt lat="46.32535000" lon="5.37156667"><ele></ele><time>2014-6-9T20:2:39Z</time></trkpt>
<trkpt lat="46.32521667" lon="5.37095000"><ele></ele><time>2014-6-9T20:2:42Z</time></trkpt>
<trkpt lat="46.32513333" lon="5.37050000"><ele></ele><time>2014-6-9T20:2:45Z</time></trkpt>
<trkpt lat="46.32450000" lon="5.36695000"><ele></ele><time>2014-6-9T20:2:48Z</time></trkpt>
<trkpt lat="46.32448333" lon="5.36673333"><ele></ele><time>2014-6-9T20:2:51Z</time></trkpt>
<trkpt lat="46.32451667" lon="5.36651667"><ele></ele><time>2014-6-9T20:2:54Z</time></trkpt>
<trkpt lat="46.32456667" lon="5.36628333"><ele></ele><time>2014-6-9T20:2:57Z</time></trkpt>
<trkpt lat="46.32461667" lon="5.36605000"><ele></ele><time>2014-6-9T20:3:0Z</time></trkpt>
<trkpt lat="46.32468333" lon="5.36581667"><ele></ele><time>2014-6-9T20:3:3Z</time></trkpt>
<trkpt lat="46.32476667" lon="5.36545000"><ele></ele><time>2014-6-9T20:3:6Z</time></trkpt>
<trkpt lat="46.32458333" lon="5.36541667"><ele></ele><time>2014-6-9T20:3:9Z</time></trkpt>
<trkpt lat="46.32438333" lon="5.36550000"><ele></ele><time>2014-6-9T20:3:12Z</time></trkpt>
<trkpt lat="46.32416667" lon="5.36558333"><ele></ele><time>2014-6-9T20:3:15Z</time></trkpt>
<trkpt lat="46.32393333" lon="5.36565000"><ele></ele><time>2014-6-9T20:3:18Z</time></trkpt>
<trkpt lat="46.32370000" lon="5.36573333"><ele></ele><time>2014-6-9T20:3:21Z</time></trkpt>
<trkpt lat="46.32351667" lon="5.36583333"><ele></ele><time>2014-6-9T20:3:24Z</time></trkpt>
<trkpt lat="46.32326667" lon="5.36601667"><ele></ele><time>2014-6-9T20:3:27Z</time></trkpt>
<trkpt lat="46.32188333" lon="5.36700000"><ele></ele><time>2014-6-9T20:3:30Z</time></trkpt>
<trkpt lat="46.32171667" lon="5.36708333"><ele></ele><time>2014-6-9T20:3:33Z</time></trkpt>
<trkpt lat="46.32126667" lon="5.36731667"><ele></ele><time>2014-6-9T20:3:36Z</time></trkpt>
<trkpt lat="46.32113333" lon="5.36738333"><ele></ele><time>2014-6-9T20:3:39Z</time></trkpt>
<trkpt lat="46.32086667" lon="5.36753333"><ele></ele><time>2014-6-9T20:3:42Z</time></trkpt>
<trkpt lat="46.32076667" lon="5.36738333"><ele></ele><time>2014-6-9T20:3:45Z</time></trkpt>
<trkpt lat="46.32075000" lon="5.36711667"><ele></ele><time>2014-6-9T20:3:48Z</time></trkpt>
<trkpt lat="46.32070000" lon="5.36685000"><ele></ele><time>2014-6-9T20:3:51Z</time></trkpt>
<trkpt lat="46.32061667" lon="5.36658333"><ele></ele><time>2014-6-9T20:3:54Z</time></trkpt>
<trkpt lat="46.32050000" lon="5.36615000"><ele></ele><time>2014-6-9T20:3:57Z</time></trkpt>
<trkpt lat="46.32040000" lon="5.36591667"><ele></ele><time>2014-6-9T20:4:0Z</time></trkpt>
<trkpt lat="46.32026667" lon="5.36560000"><ele></ele><time>2014-6-9T20:4:3Z</time></trkpt>
<trkpt lat="46.32015000" lon="5.36543333"><ele></ele><time>2014-6-9T20:4:6Z</time></trkpt>
<trkpt lat="46.31986667" lon="5.36505000"><ele></ele><time>2014-6-9T20:4:9Z</time></trkpt>
<trkpt lat="46.31968333" lon="5.36480000"><ele></ele><time>2014-6-9T20:4:12Z</time></trkpt>
<trkpt lat="46.31958333" lon="5.36466667"><ele></ele><time>2014-6-9T20:4:15Z</time></trkpt>
<trkpt lat="46.31943333" lon="5.36443333"><ele></ele><time>2014-6-9T20:4:18Z</time></trkpt>
<trkpt lat="46.31921667" lon="5.36415000"><ele></ele><time>2014-6-9T20:4:21Z</time></trkpt>
<trkpt lat="46.31911667" lon="5.36400000"><ele></ele><time>2014-6-9T20:4:24Z</time></trkpt>
<trkpt lat="46.31901667" lon="5.36380000"><ele></ele><time>2014-6-9T20:4:27Z</time></trkpt>
<trkpt lat="46.31890000" lon="5.36361667"><ele></ele><time>2014-6-9T20:4:30Z</time></trkpt>
<trkpt lat="46.31878333" lon="5.36341667"><ele></ele><time>2014-6-9T20:4:33Z</time></trkpt>
<trkpt lat="46.31861667" lon="5.36310000"><ele></ele><time>2014-6-9T20:4:36Z</time></trkpt>
<trkpt lat="46.31853333" lon="5.36285000"><ele></ele><time>2014-6-9T20:4:39Z</time></trkpt>
<trkpt lat="46.31841667" lon="5.36245000"><ele></ele><time>2014-6-9T20:4:42Z</time></trkpt>
<trkpt lat="46.31838333" lon="5.36223333"><ele></ele><time>2014-6-9T20:4:45Z</time></trkpt>
<trkpt lat="46.31833333" lon="5.36205000"><ele></ele><time>2014-6-9T20:4:48Z</time></trkpt>
<trkpt lat="46.31826667" lon="5.36181667"><ele></ele><time>2014-6-9T20:4:51Z</time></trkpt>
<trkpt lat="46.31823333" lon="5.36161667"><ele></ele><time>2014-6-9T20:4:54Z</time></trkpt>
<trkpt lat="46.31813333" lon="5.36123333"><ele></ele><time>2014-6-9T20:4:57Z</time></trkpt>
<trkpt lat="46.31810000" lon="5.36098333"><ele></ele><time>2014-6-9T20:5:0Z</time></trkpt>
<trkpt lat="46.31808333" lon="5.36073333"><ele></ele><time>2014-6-9T20:5:3Z</time></trkpt>
<trkpt lat="46.31808333" lon="5.36051667"><ele></ele><time>2014-6-9T20:5:6Z</time></trkpt>
<trkpt lat="46.31810000" lon="5.36028333"><ele></ele><time>2014-6-9T20:5:9Z</time></trkpt>
<trkpt lat="46.31808333" lon="5.36003333"><ele></ele><time>2014-6-9T20:5:12Z</time></trkpt>
<trkpt lat="46.31810000" lon="5.35980000"><ele></ele><time>2014-6-9T20:5:15Z</time></trkpt>
<trkpt lat="46.31811667" lon="5.35951667"><ele></ele><time>2014-6-9T20:5:18Z</time></trkpt>
<trkpt lat="46.31816667" lon="5.35925000"><ele></ele><time>2014-6-9T20:5:21Z</time></trkpt>
<trkpt lat="46.31818333" lon="5.35905000"><ele></ele><time>2014-6-9T20:5:24Z</time></trkpt>
<trkpt lat="46.31815000" lon="5.35881667"><ele></ele><time>2014-6-9T20:5:27Z</time></trkpt>
<trkpt lat="46.31810000" lon="5.35861667"><ele></ele><time>2014-6-9T20:5:30Z</time></trkpt>
<trkpt lat="46.31801667" lon="5.35831667"><ele></ele><time>2014-6-9T20:5:33Z</time></trkpt>
<trkpt lat="46.31798333" lon="5.35810000"><ele></ele><time>2014-6-9T20:5:36Z</time></trkpt>
<trkpt lat="46.31800000" lon="5.35788333"><ele></ele><time>2014-6-9T20:5:39Z</time></trkpt>
<trkpt lat="46.31790000" lon="5.35773333"><ele></ele><time>2014-6-9T20:5:42Z</time></trkpt>
<trkpt lat="46.31775000" lon="5.35763333"><ele></ele><time>2014-6-9T20:5:45Z</time></trkpt>
<trkpt lat="46.31765000" lon="5.35748333"><ele></ele><time>2014-6-9T20:5:48Z</time></trkpt>
<trkpt lat="46.31751667" lon="5.35736667"><ele></ele><time>2014-6-9T20:5:51Z</time></trkpt>
<trkpt lat="46.31726667" lon="5.35706667"><ele></ele><time>2014-6-9T20:5:54Z</time></trkpt>
<trkpt lat="46.31711667" lon="5.35690000"><ele></ele><time>2014-6-9T20:5:57Z</time></trkpt>
<trkpt lat="46.31698333" lon="5.35673333"><ele></ele><time>2014-6-9T20:6:0Z</time></trkpt>
<trkpt lat="46.31686667" lon="5.35653333"><ele></ele><time>2014-6-9T20:6:3Z</time></trkpt>
<trkpt lat="46.31673333" lon="5.35633333"><ele></ele><time>2014-6-9T20:6:6Z</time></trkpt>
<trkpt lat="46.31661667" lon="5.35618333"><ele></ele><time>2014-6-9T20:6:9Z</time></trkpt>
<trkpt lat="46.31646667" lon="5.35605000"><ele></ele><time>2014-6-9T20:6:12Z</time></trkpt>
<trkpt lat="46.31636667" lon="5.35583333"><ele></ele><time>2014-6-9T20:6:15Z</time></trkpt>
<trkpt lat="46.31638333" lon="5.35563333"><ele></ele><time>2014-6-9T20:6:18Z</time></trkpt>
<trkpt lat="46.31638333" lon="5.35526667"><ele></ele><time>2014-6-9T20:6:21Z</time></trkpt>
<trkpt lat="46.31636667" lon="5.35506667"><ele></ele><time>2014-6-9T20:6:24Z</time></trkpt>
<trkpt lat="46.31633333" lon="5.35486667"><ele></ele><time>2014-6-9T20:6:27Z</time></trkpt>
<trkpt lat="46.31630000" lon="5.35466667"><ele></ele><time>2014-6-9T20:6:30Z</time></trkpt>
<trkpt lat="46.31625000" lon="5.35446667"><ele></ele><time>2014-6-9T20:6:33Z</time></trkpt>
<trkpt lat="46.31613333" lon="5.35406667"><ele></ele><time>2014-6-9T20:6:36Z</time></trkpt>
<trkpt lat="46.31608333" lon="5.35388333"><ele></ele><time>2014-6-9T20:6:39Z</time></trkpt>
<trkpt lat="46.31601667" lon="5.35356667"><ele></ele><time>2014-6-9T20:6:42Z</time></trkpt>
<trkpt lat="46.31595000" lon="5.35336667"><ele></ele><time>2014-6-9T20:6:45Z</time></trkpt>
<trkpt lat="46.31588333" lon="5.35316667"><ele></ele><time>2014-6-9T20:6:48Z</time></trkpt>
<trkpt lat="46.31578333" lon="5.35291667"><ele></ele><time>2014-6-9T20:6:51Z</time></trkpt>
<trkpt lat="46.31568333" lon="5.35275000"><ele></ele><time>2014-6-9T20:6:54Z</time></trkpt>
<trkpt lat="46.31558333" lon="5.35251667"><ele></ele><time>2014-6-9T20:6:57Z</time></trkpt>
<trkpt lat="46.31551667" lon="5.35228333"><ele></ele><time>2014-6-9T20:7:0Z</time></trkpt>
<trkpt lat="46.31545000" lon="5.35205000"><ele></ele><time>2014-6-9T20:7:3Z</time></trkpt>
<trkpt lat="46.31536667" lon="5.35181667"><ele></ele><time>2014-6-9T20:7:6Z</time></trkpt>
<trkpt lat="46.31530000" lon="5.35155000"><ele></ele><time>2014-6-9T20:7:9Z</time></trkpt>
<trkpt lat="46.31523333" lon="5.35128333"><ele></ele><time>2014-6-9T20:7:12Z</time></trkpt>
<trkpt lat="46.31515000" lon="5.35083333"><ele></ele><time>2014-6-9T20:7:15Z</time></trkpt>
<trkpt lat="46.31506667" lon="5.35063333"><ele></ele><time>2014-6-9T20:7:18Z</time></trkpt>
<trkpt lat="46.31496667" lon="5.35045000"><ele></ele><time>2014-6-9T20:7:21Z</time></trkpt>
<trkpt lat="46.31483333" lon="5.35030000"><ele></ele><time>2014-6-9T20:7:24Z</time></trkpt>
<trkpt lat="46.31466667" lon="5.35013333"><ele></ele><time>2014-6-9T20:7:27Z</time></trkpt>
<trkpt lat="46.31445000" lon="5.34990000"><ele></ele><time>2014-6-9T20:7:30Z</time></trkpt>
<trkpt lat="46.31430000" lon="5.34971667"><ele></ele><time>2014-6-9T20:7:33Z</time></trkpt>
<trkpt lat="46.31418333" lon="5.34951667"><ele></ele><time>2014-6-9T20:7:36Z</time></trkpt>
<trkpt lat="46.31405000" lon="5.34935000"><ele></ele><time>2014-6-9T20:7:39Z</time></trkpt>
<trkpt lat="46.31391667" lon="5.34926667"><ele></ele><time>2014-6-9T20:7:42Z</time></trkpt>
<trkpt lat="46.31376667" lon="5.34931667"><ele></ele><time>2014-6-9T20:7:45Z</time></trkpt>
<trkpt lat="46.31361667" lon="5.34938333"><ele></ele><time>2014-6-9T20:7:48Z</time></trkpt>
<trkpt lat="46.31343333" lon="5.34945000"><ele></ele><time>2014-6-9T20:7:51Z</time></trkpt>
<trkpt lat="46.31328333" lon="5.34951667"><ele></ele><time>2014-6-9T20:7:54Z</time></trkpt>
<trkpt lat="46.31305000" lon="5.34963333"><ele></ele><time>2014-6-9T20:7:57Z</time></trkpt>
<trkpt lat="46.31290000" lon="5.34973333"><ele></ele><time>2014-6-9T20:8:0Z</time></trkpt>
<trkpt lat="46.31275000" lon="5.34980000"><ele></ele><time>2014-6-9T20:8:3Z</time></trkpt>
<trkpt lat="46.31253333" lon="5.34986667"><ele></ele><time>2014-6-9T20:8:6Z</time></trkpt>
<trkpt lat="46.31228333" lon="5.34993333"><ele></ele><time>2014-6-9T20:8:9Z</time></trkpt>
<trkpt lat="46.31211667" lon="5.34995000"><ele></ele><time>2014-6-9T20:8:12Z</time></trkpt>
<trkpt lat="46.31195000" lon="5.34986667"><ele></ele><time>2014-6-9T20:8:15Z</time></trkpt>
<trkpt lat="46.31178333" lon="5.34980000"><ele></ele><time>2014-6-9T20:8:18Z</time></trkpt>
<trkpt lat="46.31163333" lon="5.34973333"><ele></ele><time>2014-6-9T20:8:21Z</time></trkpt>
<trkpt lat="46.31143333" lon="5.34961667"><ele></ele><time>2014-6-9T20:8:24Z</time></trkpt>
<trkpt lat="46.31126667" lon="5.34955000"><ele></ele><time>2014-6-9T20:8:27Z</time></trkpt>
<trkpt lat="46.31116667" lon="5.34975000"><ele></ele><time>2014-6-9T20:8:30Z</time></trkpt>
<trkpt lat="46.31110000" lon="5.35001667"><ele></ele><time>2014-6-9T20:8:33Z</time></trkpt>
<trkpt lat="46.31076667" lon="5.35121667"><ele></ele><time>2014-6-9T20:8:36Z</time></trkpt>
<trkpt lat="46.31070000" lon="5.35141667"><ele></ele><time>2014-6-9T20:8:39Z</time></trkpt>
<trkpt lat="46.31061667" lon="5.35161667"><ele></ele><time>2014-6-9T20:8:42Z</time></trkpt>
<trkpt lat="46.31046667" lon="5.35196667"><ele></ele><time>2014-6-9T20:8:45Z</time></trkpt>
<trkpt lat="46.31031667" lon="5.35226667"><ele></ele><time>2014-6-9T20:8:48Z</time></trkpt>
<trkpt lat="46.31000000" lon="5.35296667"><ele></ele><time>2014-6-9T20:8:51Z</time></trkpt>
<trkpt lat="46.30993333" lon="5.35326667"><ele></ele><time>2014-6-9T20:8:54Z</time></trkpt>
<trkpt lat="46.30973333" lon="5.35398333"><ele></ele><time>2014-6-9T20:8:57Z</time></trkpt>
<trkpt lat="46.30961667" lon="5.35423333"><ele></ele><time>2014-6-9T20:9:0Z</time></trkpt>
<trkpt lat="46.30943333" lon="5.35460000"><ele></ele><time>2014-6-9T20:9:3Z</time></trkpt>
<trkpt lat="46.30893333" lon="5.35566667"><ele></ele><time>2014-6-9T20:9:6Z</time></trkpt>
<trkpt lat="46.30886667" lon="5.35591667"><ele></ele><time>2014-6-9T20:9:9Z</time></trkpt>
<trkpt lat="46.30883333" lon="5.35618333"><ele></ele><time>2014-6-9T20:9:12Z</time></trkpt>
<trkpt lat="46.30878333" lon="5.35646667"><ele></ele><time>2014-6-9T20:9:15Z</time></trkpt>
<trkpt lat="46.30870000" lon="5.35670000"><ele></ele><time>2014-6-9T20:9:18Z</time></trkpt>
<trkpt lat="46.30858333" lon="5.35690000"><ele></ele><time>2014-6-9T20:9:21Z</time></trkpt>
<trkpt lat="46.30845000" lon="5.35693333"><ele></ele><time>2014-6-9T20:9:24Z</time></trkpt>
<trkpt lat="46.30831667" lon="5.35688333"><ele></ele><time>2014-6-9T20:9:27Z</time></trkpt>
<trkpt lat="46.30690000" lon="5.35636667"><ele></ele><time>2014-6-9T20:9:30Z</time></trkpt>
<trkpt lat="46.30651667" lon="5.35625000"><ele></ele><time>2014-6-9T20:9:33Z</time></trkpt>
<trkpt lat="46.30621667" lon="5.35616667"><ele></ele><time>2014-6-9T20:9:36Z</time></trkpt>
</trkseg></trk></gpx>